<?xml version="1.0" encoding="UTF-8" standalone="no" ?>
<gpx xmlns="http://www.topografix.com/GPX/1/1" xmlns:xsi="http://www.w3.org/2001/XMLSchema-instance" xsi:schemaLocation="http://www.topografix.com/GPX/1/1 http://www.topografix.com/GPX/1/1/gpx.xsd" version="1.1" creator="VisuGPX - https://www.visugpx.com">
  <metadata>
    <name>LAINVILLE LONGUESSE</name>
    <desc><![CDATA[FAIT
]]></desc>
  </metadata>
  <trk>
    <name><![CDATA[LAINVILLE LONGUESSE-12943454]]></name>
    <trkseg>
      <trkpt lat="49.03464" lon="1.86443">
        <ele>39</ele>
        <time>2023-01-08T18:58:14Z</time>
      </trkpt>
      <trkpt lat="49.03485" lon="1.86439">
        <ele>39</ele>
        <time>2023-01-08T18:58:42Z</time>
      </trkpt>
      <trkpt lat="49.03484" lon="1.86434">
        <ele>39</ele>
        <time>2023-01-08T18:58:47Z</time>
      </trkpt>
      <trkpt lat="49.03497" lon="1.86428">
        <ele>39</ele>
        <time>2023-01-08T18:59:05Z</time>
      </trkpt>
      <trkpt lat="49.03527" lon="1.86316">
        <ele>43</ele>
        <time>2023-01-08T19:00:51Z</time>
      </trkpt>
      <trkpt lat="49.03533" lon="1.8626">
        <ele>43</ele>
        <time>2023-01-08T19:01:40Z</time>
      </trkpt>
      <trkpt lat="49.03572" lon="1.86096">
        <ele>44</ele>
        <time>2023-01-08T19:04:13Z</time>
      </trkpt>
      <trkpt lat="49.03593" lon="1.86059">
        <ele>45</ele>
        <time>2023-01-08T19:04:56Z</time>
      </trkpt>
      <trkpt lat="49.03654" lon="1.85883">
        <ele>51</ele>
        <time>2023-01-08T19:07:50Z</time>
      </trkpt>
      <trkpt lat="49.03685" lon="1.85824">
        <ele>57</ele>
        <time>2023-01-08T19:08:56Z</time>
      </trkpt>
      <trkpt lat="49.03725" lon="1.85734">
        <ele>66</ele>
        <time>2023-01-08T19:10:31Z</time>
      </trkpt>
      <trkpt lat="49.03738" lon="1.85695">
        <ele>70</ele>
        <time>2023-01-08T19:11:10Z</time>
      </trkpt>
      <trkpt lat="49.03754" lon="1.85668">
        <ele>75</ele>
        <time>2023-01-08T19:11:41Z</time>
      </trkpt>
      <trkpt lat="49.03758" lon="1.85643">
        <ele>77</ele>
        <time>2023-01-08T19:12:04Z</time>
      </trkpt>
      <trkpt lat="49.03766" lon="1.85625">
        <ele>80</ele>
        <time>2023-01-08T19:12:23Z</time>
      </trkpt>
      <trkpt lat="49.03768" lon="1.85593">
        <ele>83</ele>
        <time>2023-01-08T19:12:51Z</time>
      </trkpt>
      <trkpt lat="49.03774" lon="1.85595">
        <ele>84</ele>
        <time>2023-01-08T19:12:59Z</time>
      </trkpt>
      <trkpt lat="49.03785" lon="1.85615">
        <ele>84</ele>
        <time>2023-01-08T19:13:22Z</time>
      </trkpt>
      <trkpt lat="49.03785" lon="1.8564">
        <ele>82</ele>
        <time>2023-01-08T19:13:44Z</time>
      </trkpt>
      <trkpt lat="49.03797" lon="1.8565">
        <ele>83</ele>
        <time>2023-01-08T19:14:02Z</time>
      </trkpt>
      <trkpt lat="49.03833" lon="1.85658">
        <ele>88</ele>
        <time>2023-01-08T19:14:51Z</time>
      </trkpt>
      <trkpt lat="49.03856" lon="1.85676">
        <ele>89</ele>
        <time>2023-01-08T19:15:25Z</time>
      </trkpt>
      <trkpt lat="49.03862" lon="1.85676">
        <ele>90</ele>
        <time>2023-01-08T19:15:33Z</time>
      </trkpt>
      <trkpt lat="49.03926" lon="1.85715">
        <ele>92</ele>
        <time>2023-01-08T19:17:05Z</time>
      </trkpt>
      <trkpt lat="49.0395" lon="1.85739">
        <ele>90</ele>
        <time>2023-01-08T19:17:44Z</time>
      </trkpt>
      <trkpt lat="49.03997" lon="1.85757">
        <ele>92</ele>
        <time>2023-01-08T19:18:48Z</time>
      </trkpt>
      <trkpt lat="49.0408" lon="1.85809">
        <ele>88</ele>
        <time>2023-01-08T19:20:48Z</time>
      </trkpt>
      <trkpt lat="49.04094" lon="1.85812">
        <ele>89</ele>
        <time>2023-01-08T19:21:07Z</time>
      </trkpt>
      <trkpt lat="49.04124" lon="1.85809">
        <ele>93</ele>
        <time>2023-01-08T19:21:47Z</time>
      </trkpt>
      <trkpt lat="49.04147" lon="1.85788">
        <ele>97</ele>
        <time>2023-01-08T19:22:23Z</time>
      </trkpt>
      <trkpt lat="49.04167" lon="1.85757">
        <ele>101</ele>
        <time>2023-01-08T19:23:01Z</time>
      </trkpt>
      <trkpt lat="49.04188" lon="1.85746">
        <ele>103</ele>
        <time>2023-01-08T19:23:30Z</time>
      </trkpt>
      <trkpt lat="49.04205" lon="1.85731">
        <ele>104</ele>
        <time>2023-01-08T19:23:57Z</time>
      </trkpt>
      <trkpt lat="49.0423" lon="1.85727">
        <ele>105</ele>
        <time>2023-01-08T19:24:30Z</time>
      </trkpt>
      <trkpt lat="49.04305" lon="1.85699">
        <ele>106</ele>
        <time>2023-01-08T19:26:13Z</time>
      </trkpt>
      <trkpt lat="49.04337" lon="1.85659">
        <ele>107</ele>
        <time>2023-01-08T19:27:08Z</time>
      </trkpt>
      <trkpt lat="49.04352" lon="1.85649">
        <ele>108</ele>
        <time>2023-01-08T19:27:30Z</time>
      </trkpt>
      <trkpt lat="49.04394" lon="1.85606">
        <ele>111</ele>
        <time>2023-01-08T19:28:38Z</time>
      </trkpt>
      <trkpt lat="49.04408" lon="1.85585">
        <ele>112</ele>
        <time>2023-01-08T19:29:04Z</time>
      </trkpt>
      <trkpt lat="49.04408" lon="1.85576">
        <ele>112</ele>
        <time>2023-01-08T19:29:12Z</time>
      </trkpt>
      <trkpt lat="49.04423" lon="1.85563">
        <ele>113</ele>
        <time>2023-01-08T19:29:35Z</time>
      </trkpt>
      <trkpt lat="49.04431" lon="1.85529">
        <ele>115</ele>
        <time>2023-01-08T19:30:06Z</time>
      </trkpt>
      <trkpt lat="49.04446" lon="1.85516">
        <ele>116</ele>
        <time>2023-01-08T19:30:29Z</time>
      </trkpt>
      <trkpt lat="49.04517" lon="1.855">
        <ele>118</ele>
        <time>2023-01-08T19:32:05Z</time>
      </trkpt>
      <trkpt lat="49.0455" lon="1.85499">
        <ele>119</ele>
        <time>2023-01-08T19:32:49Z</time>
      </trkpt>
      <trkpt lat="49.0459" lon="1.85482">
        <ele>120</ele>
        <time>2023-01-08T19:33:45Z</time>
      </trkpt>
      <trkpt lat="49.04606" lon="1.85479">
        <ele>121</ele>
        <time>2023-01-08T19:34:06Z</time>
      </trkpt>
      <trkpt lat="49.04613" lon="1.8547">
        <ele>121</ele>
        <time>2023-01-08T19:34:18Z</time>
      </trkpt>
      <trkpt lat="49.04624" lon="1.85477">
        <ele>121</ele>
        <time>2023-01-08T19:34:34Z</time>
      </trkpt>
      <trkpt lat="49.0463" lon="1.85445">
        <ele>121</ele>
        <time>2023-01-08T19:35:03Z</time>
      </trkpt>
      <trkpt lat="49.04621" lon="1.85388">
        <ele>122</ele>
        <time>2023-01-08T19:35:55Z</time>
      </trkpt>
      <trkpt lat="49.04608" lon="1.8536">
        <ele>121</ele>
        <time>2023-01-08T19:36:25Z</time>
      </trkpt>
      <trkpt lat="49.04558" lon="1.85295">
        <ele>121</ele>
        <time>2023-01-08T19:37:52Z</time>
      </trkpt>
      <trkpt lat="49.0456" lon="1.85289">
        <ele>122</ele>
        <time>2023-01-08T19:37:58Z</time>
      </trkpt>
      <trkpt lat="49.04603" lon="1.85278">
        <ele>123</ele>
        <time>2023-01-08T19:38:56Z</time>
      </trkpt>
      <trkpt lat="49.04625" lon="1.85264">
        <ele>124</ele>
        <time>2023-01-08T19:39:28Z</time>
      </trkpt>
      <trkpt lat="49.04647" lon="1.85267">
        <ele>124</ele>
        <time>2023-01-08T19:39:58Z</time>
      </trkpt>
      <trkpt lat="49.04646" lon="1.85262">
        <ele>124</ele>
        <time>2023-01-08T19:40:02Z</time>
      </trkpt>
      <trkpt lat="49.04653" lon="1.85255">
        <ele>125</ele>
        <time>2023-01-08T19:40:13Z</time>
      </trkpt>
      <trkpt lat="49.04652" lon="1.85244">
        <ele>125</ele>
        <time>2023-01-08T19:40:23Z</time>
      </trkpt>
      <trkpt lat="49.04664" lon="1.85229">
        <ele>125</ele>
        <time>2023-01-08T19:40:44Z</time>
      </trkpt>
      <trkpt lat="49.04734" lon="1.85211">
        <ele>128</ele>
        <time>2023-01-08T19:42:19Z</time>
      </trkpt>
      <trkpt lat="49.04755" lon="1.8521">
        <ele>129</ele>
        <time>2023-01-08T19:42:47Z</time>
      </trkpt>
      <trkpt lat="49.04775" lon="1.85201">
        <ele>128</ele>
        <time>2023-01-08T19:43:14Z</time>
      </trkpt>
      <trkpt lat="49.04797" lon="1.852">
        <ele>128</ele>
        <time>2023-01-08T19:43:44Z</time>
      </trkpt>
      <trkpt lat="49.0484" lon="1.85188">
        <ele>127</ele>
        <time>2023-01-08T19:44:42Z</time>
      </trkpt>
      <trkpt lat="49.04856" lon="1.85189">
        <ele>127</ele>
        <time>2023-01-08T19:45:04Z</time>
      </trkpt>
      <trkpt lat="49.04912" lon="1.85177">
        <ele>126</ele>
        <time>2023-01-08T19:46:19Z</time>
      </trkpt>
      <trkpt lat="49.04931" lon="1.85166">
        <ele>126</ele>
        <time>2023-01-08T19:46:46Z</time>
      </trkpt>
      <trkpt lat="49.04946" lon="1.85146">
        <ele>127</ele>
        <time>2023-01-08T19:47:13Z</time>
      </trkpt>
      <trkpt lat="49.04959" lon="1.85143">
        <ele>127</ele>
        <time>2023-01-08T19:47:30Z</time>
      </trkpt>
      <trkpt lat="49.04996" lon="1.85122">
        <ele>128</ele>
        <time>2023-01-08T19:48:23Z</time>
      </trkpt>
      <trkpt lat="49.0501" lon="1.85118">
        <ele>127</ele>
        <time>2023-01-08T19:48:42Z</time>
      </trkpt>
      <trkpt lat="49.05027" lon="1.85119">
        <ele>126</ele>
        <time>2023-01-08T19:49:05Z</time>
      </trkpt>
      <trkpt lat="49.05022" lon="1.85086">
        <ele>128</ele>
        <time>2023-01-08T19:49:34Z</time>
      </trkpt>
      <trkpt lat="49.05024" lon="1.84938">
        <ele>132</ele>
        <time>2023-01-08T19:51:44Z</time>
      </trkpt>
      <trkpt lat="49.05038" lon="1.84888">
        <ele>133</ele>
        <time>2023-01-08T19:52:31Z</time>
      </trkpt>
      <trkpt lat="49.05052" lon="1.84867">
        <ele>132</ele>
        <time>2023-01-08T19:52:58Z</time>
      </trkpt>
      <trkpt lat="49.05055" lon="1.84837">
        <ele>134</ele>
        <time>2023-01-08T19:53:24Z</time>
      </trkpt>
      <trkpt lat="49.05046" lon="1.84768">
        <ele>140</ele>
        <time>2023-01-08T19:54:26Z</time>
      </trkpt>
      <trkpt lat="49.05046" lon="1.84712">
        <ele>144</ele>
        <time>2023-01-08T19:55:15Z</time>
      </trkpt>
      <trkpt lat="49.05038" lon="1.84642">
        <ele>150</ele>
        <time>2023-01-08T19:56:17Z</time>
      </trkpt>
      <trkpt lat="49.05044" lon="1.84578">
        <ele>153</ele>
        <time>2023-01-08T19:57:13Z</time>
      </trkpt>
      <trkpt lat="49.05056" lon="1.84581">
        <ele>152</ele>
        <time>2023-01-08T19:57:29Z</time>
      </trkpt>
      <trkpt lat="49.05067" lon="1.84569">
        <ele>154</ele>
        <time>2023-01-08T19:57:48Z</time>
      </trkpt>
      <trkpt lat="49.05081" lon="1.84575">
        <ele>153</ele>
        <time>2023-01-08T19:58:07Z</time>
      </trkpt>
      <trkpt lat="49.05096" lon="1.84575">
        <ele>153</ele>
        <time>2023-01-08T19:58:27Z</time>
      </trkpt>
      <trkpt lat="49.05117" lon="1.84562">
        <ele>155</ele>
        <time>2023-01-08T19:58:57Z</time>
      </trkpt>
      <trkpt lat="49.05124" lon="1.84564">
        <ele>155</ele>
        <time>2023-01-08T19:59:07Z</time>
      </trkpt>
      <trkpt lat="49.05156" lon="1.84558">
        <ele>155</ele>
        <time>2023-01-08T19:59:50Z</time>
      </trkpt>
      <trkpt lat="49.05161" lon="1.84511">
        <ele>162</ele>
        <time>2023-01-08T20:00:31Z</time>
      </trkpt>
      <trkpt lat="49.0515" lon="1.84475">
        <ele>169</ele>
        <time>2023-01-08T20:01:06Z</time>
      </trkpt>
      <trkpt lat="49.05147" lon="1.84479">
        <ele>168</ele>
        <time>2023-01-08T20:01:11Z</time>
      </trkpt>
      <trkpt lat="49.05146" lon="1.84476">
        <ele>169</ele>
        <time>2023-01-08T20:01:14Z</time>
      </trkpt>
      <trkpt lat="49.05166" lon="1.84435">
        <ele>176</ele>
        <time>2023-01-08T20:01:59Z</time>
      </trkpt>
      <trkpt lat="49.05194" lon="1.84408">
        <ele>178</ele>
        <time>2023-01-08T20:02:43Z</time>
      </trkpt>
      <trkpt lat="49.05213" lon="1.84374">
        <ele>180</ele>
        <time>2023-01-08T20:03:22Z</time>
      </trkpt>
      <trkpt lat="49.05234" lon="1.84347">
        <ele>183</ele>
        <time>2023-01-08T20:03:59Z</time>
      </trkpt>
      <trkpt lat="49.05251" lon="1.84333">
        <ele>184</ele>
        <time>2023-01-08T20:04:25Z</time>
      </trkpt>
      <trkpt lat="49.05277" lon="1.84291">
        <ele>185</ele>
        <time>2023-01-08T20:05:15Z</time>
      </trkpt>
      <trkpt lat="49.05282" lon="1.84269">
        <ele>186</ele>
        <time>2023-01-08T20:05:36Z</time>
      </trkpt>
      <trkpt lat="49.05288" lon="1.84271">
        <ele>186</ele>
        <time>2023-01-08T20:05:44Z</time>
      </trkpt>
      <trkpt lat="49.05288" lon="1.84268">
        <ele>186</ele>
        <time>2023-01-08T20:05:46Z</time>
      </trkpt>
      <trkpt lat="49.0528" lon="1.84261">
        <ele>186</ele>
        <time>2023-01-08T20:05:59Z</time>
      </trkpt>
      <trkpt lat="49.05264" lon="1.84265">
        <ele>185</ele>
        <time>2023-01-08T20:06:20Z</time>
      </trkpt>
      <trkpt lat="49.05217" lon="1.84304">
        <ele>185</ele>
        <time>2023-01-08T20:07:32Z</time>
      </trkpt>
      <trkpt lat="49.05194" lon="1.84331">
        <ele>185</ele>
        <time>2023-01-08T20:08:11Z</time>
      </trkpt>
      <trkpt lat="49.05151" lon="1.84361">
        <ele>183</ele>
        <time>2023-01-08T20:09:14Z</time>
      </trkpt>
      <trkpt lat="49.05071" lon="1.84378">
        <ele>183</ele>
        <time>2023-01-08T20:11:01Z</time>
      </trkpt>
      <trkpt lat="49.0505" lon="1.8439">
        <ele>182</ele>
        <time>2023-01-08T20:11:31Z</time>
      </trkpt>
      <trkpt lat="49.05018" lon="1.844">
        <ele>179</ele>
        <time>2023-01-08T20:12:15Z</time>
      </trkpt>
      <trkpt lat="49.04996" lon="1.84397">
        <ele>178</ele>
        <time>2023-01-08T20:12:44Z</time>
      </trkpt>
      <trkpt lat="49.04988" lon="1.8439">
        <ele>178</ele>
        <time>2023-01-08T20:12:57Z</time>
      </trkpt>
      <trkpt lat="49.04947" lon="1.84372">
        <ele>176</ele>
        <time>2023-01-08T20:13:54Z</time>
      </trkpt>
      <trkpt lat="49.04924" lon="1.8435">
        <ele>176</ele>
        <time>2023-01-08T20:14:30Z</time>
      </trkpt>
      <trkpt lat="49.04914" lon="1.84332">
        <ele>176</ele>
        <time>2023-01-08T20:14:51Z</time>
      </trkpt>
      <trkpt lat="49.04911" lon="1.84283">
        <ele>178</ele>
        <time>2023-01-08T20:15:34Z</time>
      </trkpt>
      <trkpt lat="49.04904" lon="1.84268">
        <ele>177</ele>
        <time>2023-01-08T20:15:50Z</time>
      </trkpt>
      <trkpt lat="49.04903" lon="1.84212">
        <ele>178</ele>
        <time>2023-01-08T20:16:39Z</time>
      </trkpt>
      <trkpt lat="49.04912" lon="1.84025">
        <ele>176</ele>
        <time>2023-01-08T20:19:23Z</time>
      </trkpt>
      <trkpt lat="49.04933" lon="1.83941">
        <ele>174</ele>
        <time>2023-01-08T20:20:41Z</time>
      </trkpt>
      <trkpt lat="49.04939" lon="1.83896">
        <ele>171</ele>
        <time>2023-01-08T20:21:21Z</time>
      </trkpt>
      <trkpt lat="49.04952" lon="1.83869">
        <ele>169</ele>
        <time>2023-01-08T20:21:51Z</time>
      </trkpt>
      <trkpt lat="49.04962" lon="1.83828">
        <ele>165</ele>
        <time>2023-01-08T20:22:29Z</time>
      </trkpt>
      <trkpt lat="49.04963" lon="1.83783">
        <ele>162</ele>
        <time>2023-01-08T20:23:08Z</time>
      </trkpt>
      <trkpt lat="49.04954" lon="1.83752">
        <ele>160</ele>
        <time>2023-01-08T20:23:38Z</time>
      </trkpt>
      <trkpt lat="49.04951" lon="1.83724">
        <ele>157</ele>
        <time>2023-01-08T20:24:03Z</time>
      </trkpt>
      <trkpt lat="49.04956" lon="1.83699">
        <ele>154</ele>
        <time>2023-01-08T20:24:26Z</time>
      </trkpt>
      <trkpt lat="49.04976" lon="1.83652">
        <ele>149</ele>
        <time>2023-01-08T20:25:15Z</time>
      </trkpt>
      <trkpt lat="49.04966" lon="1.83623">
        <ele>146</ele>
        <time>2023-01-08T20:25:43Z</time>
      </trkpt>
      <trkpt lat="49.04957" lon="1.83618">
        <ele>146</ele>
        <time>2023-01-08T20:25:56Z</time>
      </trkpt>
      <trkpt lat="49.04941" lon="1.83599">
        <ele>144</ele>
        <time>2023-01-08T20:26:23Z</time>
      </trkpt>
      <trkpt lat="49.04935" lon="1.83574">
        <ele>141</ele>
        <time>2023-01-08T20:26:47Z</time>
      </trkpt>
      <trkpt lat="49.04886" lon="1.83479">
        <ele>129</ele>
        <time>2023-01-08T20:28:32Z</time>
      </trkpt>
      <trkpt lat="49.04825" lon="1.83245">
        <ele>119</ele>
        <time>2023-01-08T20:32:13Z</time>
      </trkpt>
      <trkpt lat="49.04807" lon="1.83099">
        <ele>112</ele>
        <time>2023-01-08T20:34:22Z</time>
      </trkpt>
      <trkpt lat="49.04806" lon="1.82971">
        <ele>105</ele>
        <time>2023-01-08T20:36:14Z</time>
      </trkpt>
      <trkpt lat="49.04752" lon="1.82708">
        <ele>89</ele>
        <time>2023-01-08T20:40:15Z</time>
      </trkpt>
      <trkpt lat="49.0473" lon="1.82686">
        <ele>88</ele>
        <time>2023-01-08T20:40:51Z</time>
      </trkpt>
      <trkpt lat="49.04704" lon="1.82673">
        <ele>87</ele>
        <time>2023-01-08T20:41:27Z</time>
      </trkpt>
      <trkpt lat="49.04682" lon="1.82669">
        <ele>87</ele>
        <time>2023-01-08T20:41:57Z</time>
      </trkpt>
      <trkpt lat="49.04667" lon="1.82656">
        <ele>86</ele>
        <time>2023-01-08T20:42:20Z</time>
      </trkpt>
      <trkpt lat="49.04678" lon="1.82637">
        <ele>85</ele>
        <time>2023-01-08T20:42:42Z</time>
      </trkpt>
      <trkpt lat="49.04704" lon="1.82628">
        <ele>85</ele>
        <time>2023-01-08T20:43:17Z</time>
      </trkpt>
      <trkpt lat="49.04743" lon="1.82621">
        <ele>85</ele>
        <time>2023-01-08T20:44:10Z</time>
      </trkpt>
      <trkpt lat="49.04781" lon="1.82624">
        <ele>87</ele>
        <time>2023-01-08T20:45:01Z</time>
      </trkpt>
      <trkpt lat="49.04789" lon="1.82615">
        <ele>87</ele>
        <time>2023-01-08T20:45:14Z</time>
      </trkpt>
      <trkpt lat="49.04793" lon="1.82599">
        <ele>87</ele>
        <time>2023-01-08T20:45:29Z</time>
      </trkpt>
      <trkpt lat="49.048" lon="1.82589">
        <ele>87</ele>
        <time>2023-01-08T20:45:42Z</time>
      </trkpt>
      <trkpt lat="49.04843" lon="1.82586">
        <ele>89</ele>
        <time>2023-01-08T20:46:39Z</time>
      </trkpt>
      <trkpt lat="49.04884" lon="1.8259">
        <ele>88</ele>
        <time>2023-01-08T20:47:34Z</time>
      </trkpt>
      <trkpt lat="49.04893" lon="1.82583">
        <ele>88</ele>
        <time>2023-01-08T20:47:47Z</time>
      </trkpt>
      <trkpt lat="49.04898" lon="1.82539">
        <ele>87</ele>
        <time>2023-01-08T20:48:26Z</time>
      </trkpt>
      <trkpt lat="49.04915" lon="1.82518">
        <ele>86</ele>
        <time>2023-01-08T20:48:56Z</time>
      </trkpt>
      <trkpt lat="49.04945" lon="1.82505">
        <ele>89</ele>
        <time>2023-01-08T20:49:37Z</time>
      </trkpt>
      <trkpt lat="49.04968" lon="1.82423">
        <ele>92</ele>
        <time>2023-01-08T20:50:55Z</time>
      </trkpt>
      <trkpt lat="49.04984" lon="1.82381">
        <ele>92</ele>
        <time>2023-01-08T20:51:38Z</time>
      </trkpt>
      <trkpt lat="49.05038" lon="1.82263">
        <ele>95</ele>
        <time>2023-01-08T20:53:44Z</time>
      </trkpt>
      <trkpt lat="49.05072" lon="1.82215">
        <ele>98</ele>
        <time>2023-01-08T20:54:45Z</time>
      </trkpt>
      <trkpt lat="49.05079" lon="1.82198">
        <ele>97</ele>
        <time>2023-01-08T20:55:03Z</time>
      </trkpt>
      <trkpt lat="49.05078" lon="1.82162">
        <ele>95</ele>
        <time>2023-01-08T20:55:35Z</time>
      </trkpt>
      <trkpt lat="49.05063" lon="1.82118">
        <ele>94</ele>
        <time>2023-01-08T20:56:18Z</time>
      </trkpt>
      <trkpt lat="49.05075" lon="1.82086">
        <ele>93</ele>
        <time>2023-01-08T20:56:50Z</time>
      </trkpt>
      <trkpt lat="49.05043" lon="1.81992">
        <ele>96</ele>
        <time>2023-01-08T20:58:23Z</time>
      </trkpt>
      <trkpt lat="49.05032" lon="1.81941">
        <ele>99</ele>
        <time>2023-01-08T20:59:10Z</time>
      </trkpt>
      <trkpt lat="49.05027" lon="1.81936">
        <ele>99</ele>
        <time>2023-01-08T20:59:18Z</time>
      </trkpt>
      <trkpt lat="49.04986" lon="1.81947">
        <ele>102</ele>
        <time>2023-01-08T21:00:13Z</time>
      </trkpt>
      <trkpt lat="49.04972" lon="1.81958">
        <ele>102</ele>
        <time>2023-01-08T21:00:34Z</time>
      </trkpt>
      <trkpt lat="49.04942" lon="1.81963">
        <ele>104</ele>
        <time>2023-01-08T21:01:15Z</time>
      </trkpt>
      <trkpt lat="49.04899" lon="1.81961">
        <ele>105</ele>
        <time>2023-01-08T21:02:12Z</time>
      </trkpt>
      <trkpt lat="49.04865" lon="1.81948">
        <ele>106</ele>
        <time>2023-01-08T21:02:59Z</time>
      </trkpt>
      <trkpt lat="49.04832" lon="1.81955">
        <ele>106</ele>
        <time>2023-01-08T21:03:43Z</time>
      </trkpt>
      <trkpt lat="49.04777" lon="1.81979">
        <ele>107</ele>
        <time>2023-01-08T21:05:00Z</time>
      </trkpt>
      <trkpt lat="49.04708" lon="1.82029">
        <ele>106</ele>
        <time>2023-01-08T21:06:41Z</time>
      </trkpt>
      <trkpt lat="49.04626" lon="1.82061">
        <ele>107</ele>
        <time>2023-01-08T21:08:34Z</time>
      </trkpt>
      <trkpt lat="49.04602" lon="1.82067">
        <ele>107</ele>
        <time>2023-01-08T21:09:07Z</time>
      </trkpt>
      <trkpt lat="49.04592" lon="1.82065">
        <ele>107</ele>
        <time>2023-01-08T21:09:20Z</time>
      </trkpt>
      <trkpt lat="49.04598" lon="1.82">
        <ele>110</ele>
        <time>2023-01-08T21:10:18Z</time>
      </trkpt>
      <trkpt lat="49.04609" lon="1.8195">
        <ele>111</ele>
        <time>2023-01-08T21:11:04Z</time>
      </trkpt>
      <trkpt lat="49.0461" lon="1.81927">
        <ele>112</ele>
        <time>2023-01-08T21:11:24Z</time>
      </trkpt>
      <trkpt lat="49.04625" lon="1.8187">
        <ele>113</ele>
        <time>2023-01-08T21:12:18Z</time>
      </trkpt>
      <trkpt lat="49.04632" lon="1.81801">
        <ele>116</ele>
        <time>2023-01-08T21:13:19Z</time>
      </trkpt>
      <trkpt lat="49.04628" lon="1.81748">
        <ele>119</ele>
        <time>2023-01-08T21:14:05Z</time>
      </trkpt>
      <trkpt lat="49.04616" lon="1.81692">
        <ele>123</ele>
        <time>2023-01-08T21:14:57Z</time>
      </trkpt>
      <trkpt lat="49.04604" lon="1.81644">
        <ele>126</ele>
        <time>2023-01-08T21:15:42Z</time>
      </trkpt>
      <trkpt lat="49.04568" lon="1.81537">
        <ele>133</ele>
        <time>2023-01-08T21:17:27Z</time>
      </trkpt>
      <trkpt lat="49.0457" lon="1.81426">
        <ele>140</ele>
        <time>2023-01-08T21:19:04Z</time>
      </trkpt>
      <trkpt lat="49.04584" lon="1.8136">
        <ele>143</ele>
        <time>2023-01-08T21:20:05Z</time>
      </trkpt>
      <trkpt lat="49.0461" lon="1.81329">
        <ele>146</ele>
        <time>2023-01-08T21:20:49Z</time>
      </trkpt>
      <trkpt lat="49.04624" lon="1.81296">
        <ele>148</ele>
        <time>2023-01-08T21:21:23Z</time>
      </trkpt>
      <trkpt lat="49.04622" lon="1.81299">
        <ele>148</ele>
        <time>2023-01-08T21:21:27Z</time>
      </trkpt>
      <trkpt lat="49.04618" lon="1.81297">
        <ele>148</ele>
        <time>2023-01-08T21:21:33Z</time>
      </trkpt>
      <trkpt lat="49.04592" lon="1.81276">
        <ele>149</ele>
        <time>2023-01-08T21:22:12Z</time>
      </trkpt>
      <trkpt lat="49.04584" lon="1.81254">
        <ele>150</ele>
        <time>2023-01-08T21:22:34Z</time>
      </trkpt>
      <trkpt lat="49.04575" lon="1.81262">
        <ele>149</ele>
        <time>2023-01-08T21:22:48Z</time>
      </trkpt>
      <trkpt lat="49.04594" lon="1.81245">
        <ele>150</ele>
        <time>2023-01-08T21:23:17Z</time>
      </trkpt>
      <trkpt lat="49.04607" lon="1.81242">
        <ele>150</ele>
        <time>2023-01-08T21:23:35Z</time>
      </trkpt>
      <trkpt lat="49.04618" lon="1.81247">
        <ele>150</ele>
        <time>2023-01-08T21:23:50Z</time>
      </trkpt>
      <trkpt lat="49.04621" lon="1.81242">
        <ele>151</ele>
        <time>2023-01-08T21:23:56Z</time>
      </trkpt>
      <trkpt lat="49.0463" lon="1.81267">
        <ele>150</ele>
        <time>2023-01-08T21:24:21Z</time>
      </trkpt>
      <trkpt lat="49.0465" lon="1.81292">
        <ele>149</ele>
        <time>2023-01-08T21:24:56Z</time>
      </trkpt>
      <trkpt lat="49.04672" lon="1.81309">
        <ele>148</ele>
        <time>2023-01-08T21:25:28Z</time>
      </trkpt>
      <trkpt lat="49.04684" lon="1.81327">
        <ele>147</ele>
        <time>2023-01-08T21:25:51Z</time>
      </trkpt>
      <trkpt lat="49.04712" lon="1.8139">
        <ele>144</ele>
        <time>2023-01-08T21:26:57Z</time>
      </trkpt>
      <trkpt lat="49.04733" lon="1.81405">
        <ele>143</ele>
        <time>2023-01-08T21:27:28Z</time>
      </trkpt>
      <trkpt lat="49.04735" lon="1.81417">
        <ele>142</ele>
        <time>2023-01-08T21:27:39Z</time>
      </trkpt>
      <trkpt lat="49.04746" lon="1.81424">
        <ele>141</ele>
        <time>2023-01-08T21:27:55Z</time>
      </trkpt>
      <trkpt lat="49.04759" lon="1.81424">
        <ele>141</ele>
        <time>2023-01-08T21:28:13Z</time>
      </trkpt>
      <trkpt lat="49.04766" lon="1.81417">
        <ele>142</ele>
        <time>2023-01-08T21:28:24Z</time>
      </trkpt>
      <trkpt lat="49.04797" lon="1.8142">
        <ele>142</ele>
        <time>2023-01-08T21:29:05Z</time>
      </trkpt>
      <trkpt lat="49.04868" lon="1.81384">
        <ele>143</ele>
        <time>2023-01-08T21:30:45Z</time>
      </trkpt>
      <trkpt lat="49.04897" lon="1.81374">
        <ele>143</ele>
        <time>2023-01-08T21:31:25Z</time>
      </trkpt>
      <trkpt lat="49.04979" lon="1.81331">
        <ele>132</ele>
        <time>2023-01-08T21:33:20Z</time>
      </trkpt>
      <trkpt lat="49.0505" lon="1.81341">
        <ele>121</ele>
        <time>2023-01-08T21:34:56Z</time>
      </trkpt>
      <trkpt lat="49.05081" lon="1.81338">
        <ele>117</ele>
        <time>2023-01-08T21:35:37Z</time>
      </trkpt>
      <trkpt lat="49.05098" lon="1.81348">
        <ele>117</ele>
        <time>2023-01-08T21:36:01Z</time>
      </trkpt>
      <trkpt lat="49.05112" lon="1.8135">
        <ele>116</ele>
        <time>2023-01-08T21:36:20Z</time>
      </trkpt>
      <trkpt lat="49.05128" lon="1.81368">
        <ele>115</ele>
        <time>2023-01-08T21:36:47Z</time>
      </trkpt>
      <trkpt lat="49.05147" lon="1.81403">
        <ele>114</ele>
        <time>2023-01-08T21:37:26Z</time>
      </trkpt>
      <trkpt lat="49.05151" lon="1.81401">
        <ele>113</ele>
        <time>2023-01-08T21:37:32Z</time>
      </trkpt>
      <trkpt lat="49.05148" lon="1.81378">
        <ele>114</ele>
        <time>2023-01-08T21:37:52Z</time>
      </trkpt>
      <trkpt lat="49.05137" lon="1.81353">
        <ele>115</ele>
        <time>2023-01-08T21:38:19Z</time>
      </trkpt>
      <trkpt lat="49.0513" lon="1.81313">
        <ele>116</ele>
        <time>2023-01-08T21:38:55Z</time>
      </trkpt>
      <trkpt lat="49.05127" lon="1.81255">
        <ele>118</ele>
        <time>2023-01-08T21:39:46Z</time>
      </trkpt>
      <trkpt lat="49.05134" lon="1.8118">
        <ele>121</ele>
        <time>2023-01-08T21:40:52Z</time>
      </trkpt>
      <trkpt lat="49.05131" lon="1.81137">
        <ele>123</ele>
        <time>2023-01-08T21:41:30Z</time>
      </trkpt>
      <trkpt lat="49.05138" lon="1.81115">
        <ele>123</ele>
        <time>2023-01-08T21:41:51Z</time>
      </trkpt>
      <trkpt lat="49.05168" lon="1.81069">
        <ele>124</ele>
        <time>2023-01-08T21:42:48Z</time>
      </trkpt>
      <trkpt lat="49.0517" lon="1.81056">
        <ele>125</ele>
        <time>2023-01-08T21:43:00Z</time>
      </trkpt>
      <trkpt lat="49.05171" lon="1.81059">
        <ele>125</ele>
        <time>2023-01-08T21:43:03Z</time>
      </trkpt>
      <trkpt lat="49.05182" lon="1.81053">
        <ele>126</ele>
        <time>2023-01-08T21:43:18Z</time>
      </trkpt>
      <trkpt lat="49.05183" lon="1.81077">
        <ele>125</ele>
        <time>2023-01-08T21:43:39Z</time>
      </trkpt>
      <trkpt lat="49.05193" lon="1.81096">
        <ele>125</ele>
        <time>2023-01-08T21:44:01Z</time>
      </trkpt>
      <trkpt lat="49.05238" lon="1.81139">
        <ele>128</ele>
        <time>2023-01-08T21:45:11Z</time>
      </trkpt>
      <trkpt lat="49.05264" lon="1.81179">
        <ele>126</ele>
        <time>2023-01-08T21:46:01Z</time>
      </trkpt>
      <trkpt lat="49.05291" lon="1.81205">
        <ele>126</ele>
        <time>2023-01-08T21:46:43Z</time>
      </trkpt>
      <trkpt lat="49.05303" lon="1.81223">
        <ele>125</ele>
        <time>2023-01-08T21:47:06Z</time>
      </trkpt>
      <trkpt lat="49.05318" lon="1.81233">
        <ele>126</ele>
        <time>2023-01-08T21:47:28Z</time>
      </trkpt>
      <trkpt lat="49.05322" lon="1.81241">
        <ele>126</ele>
        <time>2023-01-08T21:47:36Z</time>
      </trkpt>
      <trkpt lat="49.05324" lon="1.81275">
        <ele>125</ele>
        <time>2023-01-08T21:48:06Z</time>
      </trkpt>
      <trkpt lat="49.05314" lon="1.81338">
        <ele>121</ele>
        <time>2023-01-08T21:49:03Z</time>
      </trkpt>
      <trkpt lat="49.05312" lon="1.814">
        <ele>116</ele>
        <time>2023-01-08T21:49:57Z</time>
      </trkpt>
      <trkpt lat="49.05294" lon="1.81492">
        <ele>107</ele>
        <time>2023-01-08T21:51:21Z</time>
      </trkpt>
      <trkpt lat="49.05293" lon="1.81539">
        <ele>107</ele>
        <time>2023-01-08T21:52:02Z</time>
      </trkpt>
      <trkpt lat="49.0533" lon="1.8155">
        <ele>109</ele>
        <time>2023-01-08T21:52:53Z</time>
      </trkpt>
      <trkpt lat="49.05452" lon="1.81528">
        <ele>112</ele>
        <time>2023-01-08T21:55:37Z</time>
      </trkpt>
      <trkpt lat="49.05496" lon="1.81546">
        <ele>116</ele>
        <time>2023-01-08T21:56:37Z</time>
      </trkpt>
      <trkpt lat="49.05509" lon="1.81539">
        <ele>116</ele>
        <time>2023-01-08T21:56:56Z</time>
      </trkpt>
      <trkpt lat="49.05545" lon="1.8153">
        <ele>117</ele>
        <time>2023-01-08T21:57:45Z</time>
      </trkpt>
      <trkpt lat="49.05619" lon="1.81491">
        <ele>121</ele>
        <time>2023-01-08T21:59:29Z</time>
      </trkpt>
      <trkpt lat="49.05625" lon="1.8148">
        <ele>121</ele>
        <time>2023-01-08T21:59:41Z</time>
      </trkpt>
      <trkpt lat="49.05634" lon="1.81474">
        <ele>121</ele>
        <time>2023-01-08T21:59:55Z</time>
      </trkpt>
      <trkpt lat="49.05655" lon="1.81468">
        <ele>122</ele>
        <time>2023-01-08T22:00:23Z</time>
      </trkpt>
      <trkpt lat="49.05745" lon="1.81451">
        <ele>127</ele>
        <time>2023-01-08T22:02:24Z</time>
      </trkpt>
      <trkpt lat="49.05767" lon="1.81451">
        <ele>129</ele>
        <time>2023-01-08T22:02:53Z</time>
      </trkpt>
      <trkpt lat="49.0579" lon="1.81461">
        <ele>131</ele>
        <time>2023-01-08T22:03:25Z</time>
      </trkpt>
      <trkpt lat="49.05824" lon="1.81449">
        <ele>133</ele>
        <time>2023-01-08T22:04:12Z</time>
      </trkpt>
      <trkpt lat="49.05904" lon="1.81435">
        <ele>140</ele>
        <time>2023-01-08T22:05:59Z</time>
      </trkpt>
      <trkpt lat="49.05912" lon="1.81442">
        <ele>141</ele>
        <time>2023-01-08T22:06:12Z</time>
      </trkpt>
      <trkpt lat="49.05928" lon="1.8152">
        <ele>146</ele>
        <time>2023-01-08T22:07:23Z</time>
      </trkpt>
      <trkpt lat="49.05945" lon="1.81578">
        <ele>149</ele>
        <time>2023-01-08T22:08:19Z</time>
      </trkpt>
      <trkpt lat="49.0594" lon="1.81611">
        <ele>150</ele>
        <time>2023-01-08T22:08:48Z</time>
      </trkpt>
      <trkpt lat="49.05928" lon="1.8165">
        <ele>150</ele>
        <time>2023-01-08T22:09:26Z</time>
      </trkpt>
      <trkpt lat="49.05934" lon="1.81731">
        <ele>150</ele>
        <time>2023-01-08T22:10:37Z</time>
      </trkpt>
      <trkpt lat="49.05941" lon="1.81753">
        <ele>149</ele>
        <time>2023-01-08T22:10:59Z</time>
      </trkpt>
      <trkpt lat="49.05947" lon="1.81809">
        <ele>146</ele>
        <time>2023-01-08T22:11:48Z</time>
      </trkpt>
      <trkpt lat="49.05943" lon="1.81853">
        <ele>143</ele>
        <time>2023-01-08T22:12:27Z</time>
      </trkpt>
      <trkpt lat="49.05934" lon="1.81879">
        <ele>142</ele>
        <time>2023-01-08T22:12:53Z</time>
      </trkpt>
      <trkpt lat="49.05921" lon="1.81897">
        <ele>141</ele>
        <time>2023-01-08T22:13:16Z</time>
      </trkpt>
      <trkpt lat="49.05899" lon="1.81961">
        <ele>138</ele>
        <time>2023-01-08T22:14:20Z</time>
      </trkpt>
      <trkpt lat="49.0588" lon="1.81986">
        <ele>137</ele>
        <time>2023-01-08T22:14:53Z</time>
      </trkpt>
      <trkpt lat="49.05834" lon="1.82015">
        <ele>134</ele>
        <time>2023-01-08T22:15:59Z</time>
      </trkpt>
      <trkpt lat="49.05732" lon="1.82037">
        <ele>128</ele>
        <time>2023-01-08T22:18:17Z</time>
      </trkpt>
      <trkpt lat="49.05714" lon="1.82036">
        <ele>127</ele>
        <time>2023-01-08T22:18:41Z</time>
      </trkpt>
      <trkpt lat="49.05685" lon="1.82041">
        <ele>125</ele>
        <time>2023-01-08T22:19:20Z</time>
      </trkpt>
      <trkpt lat="49.05648" lon="1.82056">
        <ele>124</ele>
        <time>2023-01-08T22:20:11Z</time>
      </trkpt>
      <trkpt lat="49.05558" lon="1.82103">
        <ele>122</ele>
        <time>2023-01-08T22:22:18Z</time>
      </trkpt>
      <trkpt lat="49.05416" lon="1.82194">
        <ele>118</ele>
        <time>2023-01-08T22:25:43Z</time>
      </trkpt>
      <trkpt lat="49.05331" lon="1.8226">
        <ele>118</ele>
        <time>2023-01-08T22:27:51Z</time>
      </trkpt>
      <trkpt lat="49.05277" lon="1.82311">
        <ele>113</ele>
        <time>2023-01-08T22:29:15Z</time>
      </trkpt>
      <trkpt lat="49.05173" lon="1.82385">
        <ele>108</ele>
        <time>2023-01-08T22:31:49Z</time>
      </trkpt>
      <trkpt lat="49.05093" lon="1.82496">
        <ele>102</ele>
        <time>2023-01-08T22:34:13Z</time>
      </trkpt>
      <trkpt lat="49.05015" lon="1.82631">
        <ele>89</ele>
        <time>2023-01-08T22:36:50Z</time>
      </trkpt>
      <trkpt lat="49.05014" lon="1.82645">
        <ele>89</ele>
        <time>2023-01-08T22:37:03Z</time>
      </trkpt>
      <trkpt lat="49.05026" lon="1.82678">
        <ele>88</ele>
        <time>2023-01-08T22:37:36Z</time>
      </trkpt>
      <trkpt lat="49.05024" lon="1.827">
        <ele>87</ele>
        <time>2023-01-08T22:37:55Z</time>
      </trkpt>
      <trkpt lat="49.05007" lon="1.82761">
        <ele>85</ele>
        <time>2023-01-08T22:38:53Z</time>
      </trkpt>
      <trkpt lat="49.04986" lon="1.82789">
        <ele>87</ele>
        <time>2023-01-08T22:39:30Z</time>
      </trkpt>
      <trkpt lat="49.04966" lon="1.82786">
        <ele>87</ele>
        <time>2023-01-08T22:39:57Z</time>
      </trkpt>
      <trkpt lat="49.04938" lon="1.8277">
        <ele>88</ele>
        <time>2023-01-08T22:40:37Z</time>
      </trkpt>
      <trkpt lat="49.04904" lon="1.8276">
        <ele>88</ele>
        <time>2023-01-08T22:41:23Z</time>
      </trkpt>
      <trkpt lat="49.04887" lon="1.82761">
        <ele>88</ele>
        <time>2023-01-08T22:41:46Z</time>
      </trkpt>
      <trkpt lat="49.04868" lon="1.82749">
        <ele>88</ele>
        <time>2023-01-08T22:42:13Z</time>
      </trkpt>
      <trkpt lat="49.04814" lon="1.82728">
        <ele>89</ele>
        <time>2023-01-08T22:43:28Z</time>
      </trkpt>
      <trkpt lat="49.04757" lon="1.82699">
        <ele>88</ele>
        <time>2023-01-08T22:44:48Z</time>
      </trkpt>
      <trkpt lat="49.04752" lon="1.82701">
        <ele>88</ele>
        <time>2023-01-08T22:44:55Z</time>
      </trkpt>
      <trkpt lat="49.0475" lon="1.82712">
        <ele>89</ele>
        <time>2023-01-08T22:45:05Z</time>
      </trkpt>
      <trkpt lat="49.04758" lon="1.82748">
        <ele>91</ele>
        <time>2023-01-08T22:45:38Z</time>
      </trkpt>
      <trkpt lat="49.04766" lon="1.8282">
        <ele>97</ele>
        <time>2023-01-08T22:46:42Z</time>
      </trkpt>
      <trkpt lat="49.04801" lon="1.82985">
        <ele>106</ele>
        <time>2023-01-08T22:49:14Z</time>
      </trkpt>
      <trkpt lat="49.048" lon="1.83087">
        <ele>111</ele>
        <time>2023-01-08T22:50:43Z</time>
      </trkpt>
      <trkpt lat="49.04812" lon="1.83193">
        <ele>117</ele>
        <time>2023-01-08T22:52:17Z</time>
      </trkpt>
      <trkpt lat="49.04811" lon="1.83238">
        <ele>118</ele>
        <time>2023-01-08T22:52:56Z</time>
      </trkpt>
      <trkpt lat="49.04823" lon="1.83265">
        <ele>119</ele>
        <time>2023-01-08T22:53:25Z</time>
      </trkpt>
      <trkpt lat="49.04875" lon="1.83479">
        <ele>129</ele>
        <time>2023-01-08T22:56:44Z</time>
      </trkpt>
      <trkpt lat="49.04901" lon="1.8356">
        <ele>138</ele>
        <time>2023-01-08T22:58:03Z</time>
      </trkpt>
      <trkpt lat="49.04976" lon="1.83664">
        <ele>151</ele>
        <time>2023-01-08T23:00:18Z</time>
      </trkpt>
      <trkpt lat="49.0499" lon="1.8368">
        <ele>152</ele>
        <time>2023-01-08T23:00:42Z</time>
      </trkpt>
      <trkpt lat="49.05013" lon="1.83697">
        <ele>153</ele>
        <time>2023-01-08T23:01:16Z</time>
      </trkpt>
      <trkpt lat="49.05026" lon="1.83716">
        <ele>155</ele>
        <time>2023-01-08T23:01:40Z</time>
      </trkpt>
      <trkpt lat="49.05037" lon="1.83723">
        <ele>155</ele>
        <time>2023-01-08T23:01:56Z</time>
      </trkpt>
      <trkpt lat="49.05061" lon="1.8375">
        <ele>157</ele>
        <time>2023-01-08T23:02:36Z</time>
      </trkpt>
      <trkpt lat="49.05071" lon="1.83777">
        <ele>158</ele>
        <time>2023-01-08T23:03:03Z</time>
      </trkpt>
      <trkpt lat="49.05141" lon="1.83886">
        <ele>163</ele>
        <time>2023-01-08T23:05:16Z</time>
      </trkpt>
      <trkpt lat="49.05161" lon="1.83905">
        <ele>164</ele>
        <time>2023-01-08T23:05:48Z</time>
      </trkpt>
      <trkpt lat="49.05198" lon="1.83966">
        <ele>167</ele>
        <time>2023-01-08T23:07:00Z</time>
      </trkpt>
      <trkpt lat="49.05219" lon="1.83992">
        <ele>169</ele>
        <time>2023-01-08T23:07:36Z</time>
      </trkpt>
      <trkpt lat="49.05229" lon="1.83992">
        <ele>169</ele>
        <time>2023-01-08T23:07:50Z</time>
      </trkpt>
      <trkpt lat="49.05247" lon="1.84011">
        <ele>170</ele>
        <time>2023-01-08T23:08:19Z</time>
      </trkpt>
      <trkpt lat="49.05264" lon="1.84038">
        <ele>173</ele>
        <time>2023-01-08T23:08:52Z</time>
      </trkpt>
      <trkpt lat="49.05294" lon="1.8407">
        <ele>177</ele>
        <time>2023-01-08T23:09:41Z</time>
      </trkpt>
      <trkpt lat="49.05357" lon="1.84117">
        <ele>181</ele>
        <time>2023-01-08T23:11:14Z</time>
      </trkpt>
      <trkpt lat="49.05382" lon="1.84146">
        <ele>182</ele>
        <time>2023-01-08T23:11:56Z</time>
      </trkpt>
      <trkpt lat="49.05434" lon="1.84194">
        <ele>183</ele>
        <time>2023-01-08T23:13:17Z</time>
      </trkpt>
      <trkpt lat="49.0546" lon="1.84207">
        <ele>183</ele>
        <time>2023-01-08T23:13:54Z</time>
      </trkpt>
      <trkpt lat="49.05493" lon="1.84238">
        <ele>184</ele>
        <time>2023-01-08T23:14:45Z</time>
      </trkpt>
      <trkpt lat="49.05505" lon="1.84226">
        <ele>184</ele>
        <time>2023-01-08T23:15:05Z</time>
      </trkpt>
      <trkpt lat="49.05498" lon="1.84234">
        <ele>184</ele>
        <time>2023-01-08T23:15:16Z</time>
      </trkpt>
      <trkpt lat="49.05507" lon="1.84232">
        <ele>185</ele>
        <time>2023-01-08T23:15:28Z</time>
      </trkpt>
      <trkpt lat="49.05502" lon="1.84245">
        <ele>185</ele>
        <time>2023-01-08T23:15:42Z</time>
      </trkpt>
      <trkpt lat="49.05495" lon="1.84224">
        <ele>184</ele>
        <time>2023-01-08T23:16:02Z</time>
      </trkpt>
      <trkpt lat="49.05514" lon="1.84238">
        <ele>185</ele>
        <time>2023-01-08T23:16:30Z</time>
      </trkpt>
      <trkpt lat="49.05511" lon="1.84241">
        <ele>185</ele>
        <time>2023-01-08T23:16:35Z</time>
      </trkpt>
      <trkpt lat="49.05545" lon="1.84257">
        <ele>188</ele>
        <time>2023-01-08T23:17:23Z</time>
      </trkpt>
      <trkpt lat="49.0557" lon="1.84278">
        <ele>189</ele>
        <time>2023-01-08T23:18:01Z</time>
      </trkpt>
      <trkpt lat="49.05597" lon="1.84314">
        <ele>190</ele>
        <time>2023-01-08T23:18:49Z</time>
      </trkpt>
      <trkpt lat="49.05639" lon="1.84339">
        <ele>193</ele>
        <time>2023-01-08T23:19:49Z</time>
      </trkpt>
      <trkpt lat="49.05676" lon="1.84372">
        <ele>192</ele>
        <time>2023-01-08T23:20:46Z</time>
      </trkpt>
      <trkpt lat="49.05697" lon="1.84382">
        <ele>192</ele>
        <time>2023-01-08T23:21:15Z</time>
      </trkpt>
      <trkpt lat="49.05773" lon="1.84446">
        <ele>192</ele>
        <time>2023-01-08T23:23:11Z</time>
      </trkpt>
      <trkpt lat="49.05812" lon="1.84486">
        <ele>191</ele>
        <time>2023-01-08T23:24:14Z</time>
      </trkpt>
      <trkpt lat="49.05834" lon="1.84532">
        <ele>187</ele>
        <time>2023-01-08T23:25:04Z</time>
      </trkpt>
      <trkpt lat="49.05879" lon="1.84585">
        <ele>184</ele>
        <time>2023-01-08T23:26:19Z</time>
      </trkpt>
      <trkpt lat="49.05902" lon="1.84627">
        <ele>177</ele>
        <time>2023-01-08T23:27:07Z</time>
      </trkpt>
      <trkpt lat="49.05925" lon="1.84654">
        <ele>172</ele>
        <time>2023-01-08T23:27:46Z</time>
      </trkpt>
      <trkpt lat="49.05927" lon="1.84667">
        <ele>169</ele>
        <time>2023-01-08T23:27:58Z</time>
      </trkpt>
      <trkpt lat="49.05922" lon="1.84677">
        <ele>168</ele>
        <time>2023-01-08T23:28:09Z</time>
      </trkpt>
      <trkpt lat="49.05902" lon="1.84691">
        <ele>165</ele>
        <time>2023-01-08T23:28:38Z</time>
      </trkpt>
      <trkpt lat="49.05852" lon="1.8471">
        <ele>158</ele>
        <time>2023-01-08T23:29:47Z</time>
      </trkpt>
      <trkpt lat="49.0584" lon="1.84727">
        <ele>155</ele>
        <time>2023-01-08T23:30:09Z</time>
      </trkpt>
      <trkpt lat="49.05838" lon="1.84741">
        <ele>153</ele>
        <time>2023-01-08T23:30:21Z</time>
      </trkpt>
      <trkpt lat="49.05845" lon="1.84751">
        <ele>153</ele>
        <time>2023-01-08T23:30:34Z</time>
      </trkpt>
      <trkpt lat="49.0588" lon="1.84772">
        <ele>154</ele>
        <time>2023-01-08T23:31:24Z</time>
      </trkpt>
      <trkpt lat="49.05934" lon="1.8482">
        <ele>155</ele>
        <time>2023-01-08T23:32:48Z</time>
      </trkpt>
      <trkpt lat="49.05948" lon="1.8483">
        <ele>155</ele>
        <time>2023-01-08T23:33:08Z</time>
      </trkpt>
      <trkpt lat="49.05979" lon="1.84843">
        <ele>157</ele>
        <time>2023-01-08T23:33:51Z</time>
      </trkpt>
      <trkpt lat="49.05979" lon="1.84877">
        <ele>154</ele>
        <time>2023-01-08T23:34:21Z</time>
      </trkpt>
      <trkpt lat="49.05996" lon="1.84937">
        <ele>151</ele>
        <time>2023-01-08T23:35:18Z</time>
      </trkpt>
      <trkpt lat="49.06007" lon="1.84999">
        <ele>147</ele>
        <time>2023-01-08T23:36:14Z</time>
      </trkpt>
      <trkpt lat="49.06078" lon="1.85159">
        <ele>139</ele>
        <time>2023-01-08T23:39:03Z</time>
      </trkpt>
      <trkpt lat="49.06138" lon="1.85279">
        <ele>132</ele>
        <time>2023-01-08T23:41:15Z</time>
      </trkpt>
      <trkpt lat="49.06181" lon="1.85392">
        <ele>126</ele>
        <time>2023-01-08T23:43:09Z</time>
      </trkpt>
      <trkpt lat="49.06191" lon="1.8543">
        <ele>125</ele>
        <time>2023-01-08T23:43:45Z</time>
      </trkpt>
      <trkpt lat="49.0621" lon="1.85459">
        <ele>126</ele>
        <time>2023-01-08T23:44:21Z</time>
      </trkpt>
      <trkpt lat="49.06232" lon="1.85506">
        <ele>128</ele>
        <time>2023-01-08T23:45:12Z</time>
      </trkpt>
      <trkpt lat="49.06241" lon="1.85561">
        <ele>131</ele>
        <time>2023-01-08T23:46:01Z</time>
      </trkpt>
      <trkpt lat="49.06237" lon="1.85584">
        <ele>131</ele>
        <time>2023-01-08T23:46:22Z</time>
      </trkpt>
      <trkpt lat="49.0625" lon="1.85671">
        <ele>135</ele>
        <time>2023-01-08T23:47:40Z</time>
      </trkpt>
      <trkpt lat="49.06251" lon="1.85748">
        <ele>136</ele>
        <time>2023-01-08T23:48:47Z</time>
      </trkpt>
      <trkpt lat="49.06265" lon="1.85803">
        <ele>137</ele>
        <time>2023-01-08T23:49:39Z</time>
      </trkpt>
      <trkpt lat="49.06269" lon="1.85842">
        <ele>138</ele>
        <time>2023-01-08T23:50:13Z</time>
      </trkpt>
      <trkpt lat="49.06296" lon="1.8592">
        <ele>144</ele>
        <time>2023-01-08T23:51:31Z</time>
      </trkpt>
      <trkpt lat="49.06312" lon="1.85952">
        <ele>148</ele>
        <time>2023-01-08T23:52:06Z</time>
      </trkpt>
      <trkpt lat="49.06324" lon="1.85965">
        <ele>149</ele>
        <time>2023-01-08T23:52:25Z</time>
      </trkpt>
      <trkpt lat="49.06345" lon="1.86">
        <ele>152</ele>
        <time>2023-01-08T23:53:07Z</time>
      </trkpt>
      <trkpt lat="49.06345" lon="1.86034">
        <ele>151</ele>
        <time>2023-01-08T23:53:37Z</time>
      </trkpt>
      <trkpt lat="49.06337" lon="1.86077">
        <ele>148</ele>
        <time>2023-01-08T23:54:16Z</time>
      </trkpt>
      <trkpt lat="49.06348" lon="1.86181">
        <ele>144</ele>
        <time>2023-01-08T23:55:48Z</time>
      </trkpt>
      <trkpt lat="49.06338" lon="1.86223">
        <ele>142</ele>
        <time>2023-01-08T23:56:27Z</time>
      </trkpt>
      <trkpt lat="49.06347" lon="1.86273">
        <ele>141</ele>
        <time>2023-01-08T23:57:12Z</time>
      </trkpt>
      <trkpt lat="49.06319" lon="1.86398">
        <ele>134</ele>
        <time>2023-01-08T23:59:08Z</time>
      </trkpt>
      <trkpt lat="49.06316" lon="1.86437">
        <ele>131</ele>
        <time>2023-01-08T23:59:42Z</time>
      </trkpt>
      <trkpt lat="49.06305" lon="1.86475">
        <ele>129</ele>
        <time>2023-01-09T00:00:18Z</time>
      </trkpt>
      <trkpt lat="49.06298" lon="1.86528">
        <ele>126</ele>
        <time>2023-01-09T00:01:06Z</time>
      </trkpt>
      <trkpt lat="49.06303" lon="1.86549">
        <ele>126</ele>
        <time>2023-01-09T00:01:25Z</time>
      </trkpt>
      <trkpt lat="49.06318" lon="1.86579">
        <ele>125</ele>
        <time>2023-01-09T00:01:58Z</time>
      </trkpt>
      <trkpt lat="49.06307" lon="1.86612">
        <ele>123</ele>
        <time>2023-01-09T00:02:31Z</time>
      </trkpt>
      <trkpt lat="49.06301" lon="1.86662">
        <ele>122</ele>
        <time>2023-01-09T00:03:15Z</time>
      </trkpt>
      <trkpt lat="49.06328" lon="1.86716">
        <ele>121</ele>
        <time>2023-01-09T00:04:14Z</time>
      </trkpt>
      <trkpt lat="49.0633" lon="1.86737">
        <ele>120</ele>
        <time>2023-01-09T00:04:33Z</time>
      </trkpt>
      <trkpt lat="49.06343" lon="1.86783">
        <ele>119</ele>
        <time>2023-01-09T00:05:17Z</time>
      </trkpt>
      <trkpt lat="49.06339" lon="1.86846">
        <ele>117</ele>
        <time>2023-01-09T00:06:12Z</time>
      </trkpt>
      <trkpt lat="49.06341" lon="1.86871">
        <ele>116</ele>
        <time>2023-01-09T00:06:34Z</time>
      </trkpt>
      <trkpt lat="49.06334" lon="1.86885">
        <ele>115</ele>
        <time>2023-01-09T00:06:50Z</time>
      </trkpt>
      <trkpt lat="49.06308" lon="1.86902">
        <ele>114</ele>
        <time>2023-01-09T00:07:27Z</time>
      </trkpt>
      <trkpt lat="49.06293" lon="1.86895">
        <ele>114</ele>
        <time>2023-01-09T00:07:48Z</time>
      </trkpt>
      <trkpt lat="49.06277" lon="1.86894">
        <ele>113</ele>
        <time>2023-01-09T00:08:10Z</time>
      </trkpt>
      <trkpt lat="49.06235" lon="1.86903">
        <ele>112</ele>
        <time>2023-01-09T00:09:06Z</time>
      </trkpt>
      <trkpt lat="49.06185" lon="1.86928">
        <ele>109</ele>
        <time>2023-01-09T00:10:16Z</time>
      </trkpt>
      <trkpt lat="49.06147" lon="1.86942">
        <ele>107</ele>
        <time>2023-01-09T00:11:09Z</time>
      </trkpt>
      <trkpt lat="49.06104" lon="1.8697">
        <ele>105</ele>
        <time>2023-01-09T00:12:11Z</time>
      </trkpt>
      <trkpt lat="49.06019" lon="1.87012">
        <ele>102</ele>
        <time>2023-01-09T00:14:10Z</time>
      </trkpt>
      <trkpt lat="49.05966" lon="1.87031">
        <ele>102</ele>
        <time>2023-01-09T00:15:23Z</time>
      </trkpt>
      <trkpt lat="49.0595" lon="1.87032">
        <ele>102</ele>
        <time>2023-01-09T00:15:44Z</time>
      </trkpt>
      <trkpt lat="49.05878" lon="1.87055">
        <ele>102</ele>
        <time>2023-01-09T00:17:22Z</time>
      </trkpt>
      <trkpt lat="49.05849" lon="1.87069">
        <ele>102</ele>
        <time>2023-01-09T00:18:03Z</time>
      </trkpt>
      <trkpt lat="49.05834" lon="1.87078">
        <ele>102</ele>
        <time>2023-01-09T00:18:24Z</time>
      </trkpt>
      <trkpt lat="49.0582" lon="1.87094">
        <ele>102</ele>
        <time>2023-01-09T00:18:48Z</time>
      </trkpt>
      <trkpt lat="49.05775" lon="1.8712">
        <ele>103</ele>
        <time>2023-01-09T00:19:52Z</time>
      </trkpt>
      <trkpt lat="49.0572" lon="1.87169">
        <ele>103</ele>
        <time>2023-01-09T00:21:17Z</time>
      </trkpt>
      <trkpt lat="49.05649" lon="1.87222">
        <ele>103</ele>
        <time>2023-01-09T00:23:02Z</time>
      </trkpt>
      <trkpt lat="49.05442" lon="1.87347">
        <ele>99</ele>
        <time>2023-01-09T00:28:00Z</time>
      </trkpt>
      <trkpt lat="49.05393" lon="1.87387">
        <ele>100</ele>
        <time>2023-01-09T00:29:14Z</time>
      </trkpt>
      <trkpt lat="49.05296" lon="1.87453">
        <ele>101</ele>
        <time>2023-01-09T00:31:35Z</time>
      </trkpt>
      <trkpt lat="49.05287" lon="1.87468">
        <ele>101</ele>
        <time>2023-01-09T00:31:53Z</time>
      </trkpt>
      <trkpt lat="49.05288" lon="1.87483">
        <ele>101</ele>
        <time>2023-01-09T00:32:06Z</time>
      </trkpt>
      <trkpt lat="49.05297" lon="1.87504">
        <ele>102</ele>
        <time>2023-01-09T00:32:28Z</time>
      </trkpt>
      <trkpt lat="49.05313" lon="1.87521">
        <ele>102</ele>
        <time>2023-01-09T00:32:54Z</time>
      </trkpt>
      <trkpt lat="49.05339" lon="1.8757">
        <ele>102</ele>
        <time>2023-01-09T00:33:49Z</time>
      </trkpt>
      <trkpt lat="49.05404" lon="1.87658">
        <ele>104</ele>
        <time>2023-01-09T00:35:45Z</time>
      </trkpt>
      <trkpt lat="49.05417" lon="1.87684">
        <ele>104</ele>
        <time>2023-01-09T00:36:14Z</time>
      </trkpt>
      <trkpt lat="49.05485" lon="1.87789">
        <ele>105</ele>
        <time>2023-01-09T00:38:23Z</time>
      </trkpt>
      <trkpt lat="49.05533" lon="1.87855">
        <ele>105</ele>
        <time>2023-01-09T00:39:49Z</time>
      </trkpt>
      <trkpt lat="49.05622" lon="1.87997">
        <ele>105</ele>
        <time>2023-01-09T00:42:41Z</time>
      </trkpt>
      <trkpt lat="49.05641" lon="1.8802">
        <ele>105</ele>
        <time>2023-01-09T00:43:14Z</time>
      </trkpt>
      <trkpt lat="49.05764" lon="1.88204">
        <ele>101</ele>
        <time>2023-01-09T00:47:03Z</time>
      </trkpt>
      <trkpt lat="49.05883" lon="1.88391">
        <ele>102</ele>
        <time>2023-01-09T00:50:51Z</time>
      </trkpt>
      <trkpt lat="49.05891" lon="1.88396">
        <ele>102</ele>
        <time>2023-01-09T00:51:03Z</time>
      </trkpt>
      <trkpt lat="49.059" lon="1.88394">
        <ele>103</ele>
        <time>2023-01-09T00:51:15Z</time>
      </trkpt>
      <trkpt lat="49.05887" lon="1.88385">
        <ele>102</ele>
        <time>2023-01-09T00:51:34Z</time>
      </trkpt>
      <trkpt lat="49.05891" lon="1.88398">
        <ele>102</ele>
        <time>2023-01-09T00:51:47Z</time>
      </trkpt>
      <trkpt lat="49.05881" lon="1.88425">
        <ele>102</ele>
        <time>2023-01-09T00:52:14Z</time>
      </trkpt>
      <trkpt lat="49.05856" lon="1.8845">
        <ele>101</ele>
        <time>2023-01-09T00:52:54Z</time>
      </trkpt>
      <trkpt lat="49.058" lon="1.88531">
        <ele>100</ele>
        <time>2023-01-09T00:54:37Z</time>
      </trkpt>
      <trkpt lat="49.05737" lon="1.88604">
        <ele>100</ele>
        <time>2023-01-09T00:56:22Z</time>
      </trkpt>
      <trkpt lat="49.05709" lon="1.88645">
        <ele>100</ele>
        <time>2023-01-09T00:57:14Z</time>
      </trkpt>
      <trkpt lat="49.05686" lon="1.88668">
        <ele>99</ele>
        <time>2023-01-09T00:57:51Z</time>
      </trkpt>
      <trkpt lat="49.05658" lon="1.88706">
        <ele>100</ele>
        <time>2023-01-09T00:58:41Z</time>
      </trkpt>
      <trkpt lat="49.05643" lon="1.88734">
        <ele>100</ele>
        <time>2023-01-09T00:59:12Z</time>
      </trkpt>
      <trkpt lat="49.05627" lon="1.88777">
        <ele>100</ele>
        <time>2023-01-09T00:59:56Z</time>
      </trkpt>
      <trkpt lat="49.05617" lon="1.88827">
        <ele>100</ele>
        <time>2023-01-09T01:00:41Z</time>
      </trkpt>
      <trkpt lat="49.0562" lon="1.8885">
        <ele>101</ele>
        <time>2023-01-09T01:01:02Z</time>
      </trkpt>
      <trkpt lat="49.05631" lon="1.88864">
        <ele>101</ele>
        <time>2023-01-09T01:01:21Z</time>
      </trkpt>
      <trkpt lat="49.05691" lon="1.88908">
        <ele>102</ele>
        <time>2023-01-09T01:02:50Z</time>
      </trkpt>
      <trkpt lat="49.05734" lon="1.88974">
        <ele>103</ele>
        <time>2023-01-09T01:04:11Z</time>
      </trkpt>
      <trkpt lat="49.05776" lon="1.89022">
        <ele>105</ele>
        <time>2023-01-09T01:05:21Z</time>
      </trkpt>
      <trkpt lat="49.05796" lon="1.89035">
        <ele>105</ele>
        <time>2023-01-09T01:05:50Z</time>
      </trkpt>
      <trkpt lat="49.05836" lon="1.89041">
        <ele>106</ele>
        <time>2023-01-09T01:06:44Z</time>
      </trkpt>
      <trkpt lat="49.05857" lon="1.89058">
        <ele>106</ele>
        <time>2023-01-09T01:07:15Z</time>
      </trkpt>
      <trkpt lat="49.05927" lon="1.89154">
        <ele>106</ele>
        <time>2023-01-09T01:09:21Z</time>
      </trkpt>
      <trkpt lat="49.0597" lon="1.89237">
        <ele>106</ele>
        <time>2023-01-09T01:10:54Z</time>
      </trkpt>
      <trkpt lat="49.06049" lon="1.89409">
        <ele>104</ele>
        <time>2023-01-09T01:13:57Z</time>
      </trkpt>
      <trkpt lat="49.06153" lon="1.89702">
        <ele>104</ele>
        <time>2023-01-09T01:18:49Z</time>
      </trkpt>
      <trkpt lat="49.06232" lon="1.8997">
        <ele>106</ele>
        <time>2023-01-09T01:23:06Z</time>
      </trkpt>
      <trkpt lat="49.06253" lon="1.89985">
        <ele>105</ele>
        <time>2023-01-09T01:23:37Z</time>
      </trkpt>
      <trkpt lat="49.06327" lon="1.90054">
        <ele>106</ele>
        <time>2023-01-09T01:25:32Z</time>
      </trkpt>
      <trkpt lat="49.06357" lon="1.90076">
        <ele>106</ele>
        <time>2023-01-09T01:26:17Z</time>
      </trkpt>
      <trkpt lat="49.06335" lon="1.90154">
        <ele>105</ele>
        <time>2023-01-09T01:27:31Z</time>
      </trkpt>
      <trkpt lat="49.06308" lon="1.90222">
        <ele>103</ele>
        <time>2023-01-09T01:28:40Z</time>
      </trkpt>
      <trkpt lat="49.06299" lon="1.90281">
        <ele>101</ele>
        <time>2023-01-09T01:29:33Z</time>
      </trkpt>
      <trkpt lat="49.06296" lon="1.90335">
        <ele>100</ele>
        <time>2023-01-09T01:30:21Z</time>
      </trkpt>
      <trkpt lat="49.06301" lon="1.9037">
        <ele>99</ele>
        <time>2023-01-09T01:30:52Z</time>
      </trkpt>
      <trkpt lat="49.06297" lon="1.90596">
        <ele>94</ele>
        <time>2023-01-09T01:34:10Z</time>
      </trkpt>
      <trkpt lat="49.06304" lon="1.90596">
        <ele>94</ele>
        <time>2023-01-09T01:34:19Z</time>
      </trkpt>
      <trkpt lat="49.06313" lon="1.9061">
        <ele>94</ele>
        <time>2023-01-09T01:34:36Z</time>
      </trkpt>
      <trkpt lat="49.06317" lon="1.90637">
        <ele>95</ele>
        <time>2023-01-09T01:35:00Z</time>
      </trkpt>
      <trkpt lat="49.063" lon="1.9071">
        <ele>96</ele>
        <time>2023-01-09T01:36:08Z</time>
      </trkpt>
      <trkpt lat="49.06287" lon="1.90813">
        <ele>95</ele>
        <time>2023-01-09T01:37:40Z</time>
      </trkpt>
      <trkpt lat="49.06277" lon="1.90809">
        <ele>96</ele>
        <time>2023-01-09T01:37:54Z</time>
      </trkpt>
      <trkpt lat="49.06264" lon="1.90788">
        <ele>97</ele>
        <time>2023-01-09T01:38:19Z</time>
      </trkpt>
      <trkpt lat="49.06184" lon="1.90715">
        <ele>101</ele>
        <time>2023-01-09T01:40:23Z</time>
      </trkpt>
      <trkpt lat="49.06158" lon="1.90684">
        <ele>102</ele>
        <time>2023-01-09T01:41:07Z</time>
      </trkpt>
      <trkpt lat="49.06118" lon="1.90649">
        <ele>104</ele>
        <time>2023-01-09T01:42:09Z</time>
      </trkpt>
      <trkpt lat="49.06082" lon="1.9061">
        <ele>106</ele>
        <time>2023-01-09T01:43:08Z</time>
      </trkpt>
      <trkpt lat="49.06073" lon="1.90604">
        <ele>106</ele>
        <time>2023-01-09T01:43:21Z</time>
      </trkpt>
      <trkpt lat="49.06064" lon="1.90604">
        <ele>107</ele>
        <time>2023-01-09T01:43:33Z</time>
      </trkpt>
      <trkpt lat="49.06058" lon="1.90614">
        <ele>107</ele>
        <time>2023-01-09T01:43:45Z</time>
      </trkpt>
      <trkpt lat="49.06033" lon="1.9062">
        <ele>108</ele>
        <time>2023-01-09T01:44:19Z</time>
      </trkpt>
      <trkpt lat="49.06017" lon="1.90648">
        <ele>109</ele>
        <time>2023-01-09T01:44:51Z</time>
      </trkpt>
      <trkpt lat="49.05965" lon="1.90777">
        <ele>108</ele>
        <time>2023-01-09T01:47:04Z</time>
      </trkpt>
      <trkpt lat="49.05924" lon="1.90861">
        <ele>109</ele>
        <time>2023-01-09T01:48:35Z</time>
      </trkpt>
      <trkpt lat="49.05727" lon="1.91328">
        <ele>111</ele>
        <time>2023-01-09T01:56:41Z</time>
      </trkpt>
      <trkpt lat="49.05671" lon="1.9145">
        <ele>108</ele>
        <time>2023-01-09T01:58:51Z</time>
      </trkpt>
      <trkpt lat="49.05638" lon="1.91538">
        <ele>106</ele>
        <time>2023-01-09T02:00:20Z</time>
      </trkpt>
      <trkpt lat="49.05514" lon="1.91821">
        <ele>103</ele>
        <time>2023-01-09T02:05:17Z</time>
      </trkpt>
      <trkpt lat="49.05516" lon="1.91831">
        <ele>103</ele>
        <time>2023-01-09T02:05:27Z</time>
      </trkpt>
      <trkpt lat="49.05524" lon="1.91841">
        <ele>103</ele>
        <time>2023-01-09T02:05:40Z</time>
      </trkpt>
      <trkpt lat="49.05593" lon="1.91886">
        <ele>105</ele>
        <time>2023-01-09T02:07:21Z</time>
      </trkpt>
      <trkpt lat="49.05623" lon="1.91901">
        <ele>105</ele>
        <time>2023-01-09T02:08:03Z</time>
      </trkpt>
      <trkpt lat="49.05653" lon="1.91931">
        <ele>105</ele>
        <time>2023-01-09T02:08:50Z</time>
      </trkpt>
      <trkpt lat="49.05673" lon="1.91939">
        <ele>105</ele>
        <time>2023-01-09T02:09:18Z</time>
      </trkpt>
      <trkpt lat="49.05705" lon="1.9196">
        <ele>105</ele>
        <time>2023-01-09T02:10:05Z</time>
      </trkpt>
      <trkpt lat="49.05739" lon="1.92001">
        <ele>104</ele>
        <time>2023-01-09T02:11:02Z</time>
      </trkpt>
      <trkpt lat="49.0576" lon="1.92018">
        <ele>101</ele>
        <time>2023-01-09T02:11:34Z</time>
      </trkpt>
      <trkpt lat="49.0579" lon="1.92016">
        <ele>97</ele>
        <time>2023-01-09T02:12:14Z</time>
      </trkpt>
      <trkpt lat="49.05804" lon="1.9201">
        <ele>95</ele>
        <time>2023-01-09T02:12:34Z</time>
      </trkpt>
      <trkpt lat="49.05833" lon="1.91989">
        <ele>92</ele>
        <time>2023-01-09T02:13:16Z</time>
      </trkpt>
      <trkpt lat="49.05847" lon="1.91973">
        <ele>92</ele>
        <time>2023-01-09T02:13:40Z</time>
      </trkpt>
      <trkpt lat="49.05862" lon="1.91968">
        <ele>90</ele>
        <time>2023-01-09T02:14:00Z</time>
      </trkpt>
      <trkpt lat="49.05875" lon="1.91972">
        <ele>87</ele>
        <time>2023-01-09T02:14:18Z</time>
      </trkpt>
      <trkpt lat="49.05897" lon="1.91988">
        <ele>83</ele>
        <time>2023-01-09T02:14:50Z</time>
      </trkpt>
      <trkpt lat="49.0592" lon="1.91987">
        <ele>80</ele>
        <time>2023-01-09T02:15:21Z</time>
      </trkpt>
      <trkpt lat="49.06003" lon="1.92015">
        <ele>78</ele>
        <time>2023-01-09T02:17:15Z</time>
      </trkpt>
      <trkpt lat="49.06027" lon="1.92017">
        <ele>77</ele>
        <time>2023-01-09T02:17:47Z</time>
      </trkpt>
      <trkpt lat="49.06077" lon="1.9204">
        <ele>76</ele>
        <time>2023-01-09T02:18:56Z</time>
      </trkpt>
      <trkpt lat="49.06111" lon="1.92051">
        <ele>75</ele>
        <time>2023-01-09T02:19:43Z</time>
      </trkpt>
      <trkpt lat="49.06121" lon="1.92048">
        <ele>75</ele>
        <time>2023-01-09T02:19:56Z</time>
      </trkpt>
      <trkpt lat="49.06198" lon="1.92077">
        <ele>73</ele>
        <time>2023-01-09T02:21:42Z</time>
      </trkpt>
      <trkpt lat="49.06202" lon="1.92101">
        <ele>74</ele>
        <time>2023-01-09T02:22:04Z</time>
      </trkpt>
      <trkpt lat="49.06195" lon="1.92329">
        <ele>74</ele>
        <time>2023-01-09T02:25:23Z</time>
      </trkpt>
      <trkpt lat="49.06196" lon="1.92436">
        <ele>73</ele>
        <time>2023-01-09T02:26:57Z</time>
      </trkpt>
      <trkpt lat="49.06211" lon="1.92594">
        <ele>70</ele>
        <time>2023-01-09T02:29:17Z</time>
      </trkpt>
      <trkpt lat="49.06236" lon="1.92751">
        <ele>68</ele>
        <time>2023-01-09T02:31:38Z</time>
      </trkpt>
      <trkpt lat="49.06237" lon="1.92838">
        <ele>68</ele>
        <time>2023-01-09T02:32:54Z</time>
      </trkpt>
      <trkpt lat="49.06245" lon="1.92921">
        <ele>68</ele>
        <time>2023-01-09T02:34:07Z</time>
      </trkpt>
      <trkpt lat="49.0628" lon="1.93093">
        <ele>61</ele>
        <time>2023-01-09T02:36:45Z</time>
      </trkpt>
      <trkpt lat="49.0627" lon="1.93119">
        <ele>60</ele>
        <time>2023-01-09T02:37:11Z</time>
      </trkpt>
      <trkpt lat="49.06243" lon="1.93146">
        <ele>59</ele>
        <time>2023-01-09T02:37:54Z</time>
      </trkpt>
      <trkpt lat="49.06222" lon="1.93152">
        <ele>58</ele>
        <time>2023-01-09T02:38:23Z</time>
      </trkpt>
      <trkpt lat="49.06194" lon="1.93139">
        <ele>59</ele>
        <time>2023-01-09T02:39:02Z</time>
      </trkpt>
      <trkpt lat="49.06178" lon="1.93138">
        <ele>59</ele>
        <time>2023-01-09T02:39:23Z</time>
      </trkpt>
      <trkpt lat="49.0612" lon="1.93119">
        <ele>59</ele>
        <time>2023-01-09T02:40:42Z</time>
      </trkpt>
      <trkpt lat="49.06089" lon="1.9312">
        <ele>59</ele>
        <time>2023-01-09T02:41:24Z</time>
      </trkpt>
      <trkpt lat="49.06066" lon="1.93115">
        <ele>59</ele>
        <time>2023-01-09T02:41:55Z</time>
      </trkpt>
      <trkpt lat="49.06023" lon="1.93122">
        <ele>59</ele>
        <time>2023-01-09T02:42:52Z</time>
      </trkpt>
      <trkpt lat="49.05993" lon="1.93114">
        <ele>60</ele>
        <time>2023-01-09T02:43:33Z</time>
      </trkpt>
      <trkpt lat="49.05965" lon="1.93112">
        <ele>59</ele>
        <time>2023-01-09T02:44:10Z</time>
      </trkpt>
      <trkpt lat="49.05976" lon="1.93293">
        <ele>51</ele>
        <time>2023-01-09T02:46:49Z</time>
      </trkpt>
      <trkpt lat="49.05967" lon="1.93367">
        <ele>51</ele>
        <time>2023-01-09T02:47:55Z</time>
      </trkpt>
      <trkpt lat="49.05956" lon="1.93398">
        <ele>52</ele>
        <time>2023-01-09T02:48:26Z</time>
      </trkpt>
      <trkpt lat="49.05944" lon="1.93408">
        <ele>52</ele>
        <time>2023-01-09T02:48:44Z</time>
      </trkpt>
      <trkpt lat="49.05833" lon="1.93455">
        <ele>52</ele>
        <time>2023-01-09T02:51:18Z</time>
      </trkpt>
      <trkpt lat="49.05797" lon="1.93479">
        <ele>52</ele>
        <time>2023-01-09T02:52:10Z</time>
      </trkpt>
      <trkpt lat="49.05763" lon="1.93509">
        <ele>51</ele>
        <time>2023-01-09T02:53:03Z</time>
      </trkpt>
      <trkpt lat="49.05744" lon="1.93536">
        <ele>52</ele>
        <time>2023-01-09T02:53:38Z</time>
      </trkpt>
      <trkpt lat="49.05695" lon="1.93582">
        <ele>51</ele>
        <time>2023-01-09T02:54:54Z</time>
      </trkpt>
      <trkpt lat="49.05669" lon="1.93616">
        <ele>51</ele>
        <time>2023-01-09T02:55:40Z</time>
      </trkpt>
      <trkpt lat="49.05643" lon="1.93639">
        <ele>51</ele>
        <time>2023-01-09T02:56:20Z</time>
      </trkpt>
      <trkpt lat="49.05554" lon="1.93772">
        <ele>50</ele>
        <time>2023-01-09T02:59:06Z</time>
      </trkpt>
      <trkpt lat="49.05466" lon="1.93993">
        <ele>47</ele>
        <time>2023-01-09T03:02:52Z</time>
      </trkpt>
      <trkpt lat="49.05443" lon="1.9404">
        <ele>48</ele>
        <time>2023-01-09T03:03:44Z</time>
      </trkpt>
      <trkpt lat="49.05426" lon="1.94048">
        <ele>48</ele>
        <time>2023-01-09T03:04:08Z</time>
      </trkpt>
      <trkpt lat="49.05394" lon="1.94025">
        <ele>48</ele>
        <time>2023-01-09T03:04:55Z</time>
      </trkpt>
      <trkpt lat="49.05394" lon="1.93993">
        <ele>48</ele>
        <time>2023-01-09T03:05:23Z</time>
      </trkpt>
      <trkpt lat="49.05398" lon="1.93992">
        <ele>48</ele>
        <time>2023-01-09T03:05:28Z</time>
      </trkpt>
      <trkpt lat="49.05391" lon="1.93979">
        <ele>48</ele>
        <time>2023-01-09T03:05:43Z</time>
      </trkpt>
      <trkpt lat="49.05395" lon="1.93972">
        <ele>48</ele>
        <time>2023-01-09T03:05:51Z</time>
      </trkpt>
      <trkpt lat="49.05393" lon="1.93994">
        <ele>48</ele>
        <time>2023-01-09T03:06:10Z</time>
      </trkpt>
      <trkpt lat="49.05406" lon="1.93997">
        <ele>48</ele>
        <time>2023-01-09T03:06:28Z</time>
      </trkpt>
      <trkpt lat="49.05403" lon="1.94009">
        <ele>48</ele>
        <time>2023-01-09T03:06:39Z</time>
      </trkpt>
      <trkpt lat="49.05398" lon="1.93997">
        <ele>48</ele>
        <time>2023-01-09T03:06:52Z</time>
      </trkpt>
      <trkpt lat="49.05396" lon="1.94013">
        <ele>48</ele>
        <time>2023-01-09T03:07:06Z</time>
      </trkpt>
      <trkpt lat="49.05423" lon="1.94041">
        <ele>48</ele>
        <time>2023-01-09T03:07:49Z</time>
      </trkpt>
      <trkpt lat="49.05429" lon="1.94069">
        <ele>48</ele>
        <time>2023-01-09T03:08:15Z</time>
      </trkpt>
      <trkpt lat="49.05409" lon="1.94139">
        <ele>49</ele>
        <time>2023-01-09T03:09:22Z</time>
      </trkpt>
      <trkpt lat="49.0537" lon="1.9438">
        <ele>49</ele>
        <time>2023-01-09T03:12:59Z</time>
      </trkpt>
      <trkpt lat="49.05342" lon="1.94447">
        <ele>48</ele>
        <time>2023-01-09T03:14:09Z</time>
      </trkpt>
      <trkpt lat="49.05252" lon="1.94618">
        <ele>50</ele>
        <time>2023-01-09T03:17:20Z</time>
      </trkpt>
      <trkpt lat="49.05241" lon="1.94633">
        <ele>50</ele>
        <time>2023-01-09T03:17:40Z</time>
      </trkpt>
      <trkpt lat="49.05216" lon="1.94695">
        <ele>49</ele>
        <time>2023-01-09T03:18:44Z</time>
      </trkpt>
      <trkpt lat="49.0516" lon="1.9477">
        <ele>47</ele>
        <time>2023-01-09T03:20:23Z</time>
      </trkpt>
      <trkpt lat="49.05132" lon="1.948">
        <ele>46</ele>
        <time>2023-01-09T03:21:09Z</time>
      </trkpt>
      <trkpt lat="49.05087" lon="1.94874">
        <ele>46</ele>
        <time>2023-01-09T03:22:37Z</time>
      </trkpt>
      <trkpt lat="49.05078" lon="1.94871">
        <ele>46</ele>
        <time>2023-01-09T03:22:49Z</time>
      </trkpt>
      <trkpt lat="49.05066" lon="1.94856">
        <ele>46</ele>
        <time>2023-01-09T03:23:10Z</time>
      </trkpt>
      <trkpt lat="49.05055" lon="1.94861">
        <ele>47</ele>
        <time>2023-01-09T03:23:25Z</time>
      </trkpt>
      <trkpt lat="49.04939" lon="1.94976">
        <ele>46</ele>
        <time>2023-01-09T03:26:30Z</time>
      </trkpt>
      <trkpt lat="49.04904" lon="1.95025">
        <ele>46</ele>
        <time>2023-01-09T03:27:33Z</time>
      </trkpt>
      <trkpt lat="49.04844" lon="1.95096">
        <ele>46</ele>
        <time>2023-01-09T03:29:15Z</time>
      </trkpt>
      <trkpt lat="49.04831" lon="1.95109">
        <ele>46</ele>
        <time>2023-01-09T03:29:35Z</time>
      </trkpt>
      <trkpt lat="49.048" lon="1.95122">
        <ele>45</ele>
        <time>2023-01-09T03:30:18Z</time>
      </trkpt>
      <trkpt lat="49.04739" lon="1.95102">
        <ele>44</ele>
        <time>2023-01-09T03:31:42Z</time>
      </trkpt>
      <trkpt lat="49.04675" lon="1.95104">
        <ele>46</ele>
        <time>2023-01-09T03:33:07Z</time>
      </trkpt>
      <trkpt lat="49.04657" lon="1.95096">
        <ele>46</ele>
        <time>2023-01-09T03:33:32Z</time>
      </trkpt>
      <trkpt lat="49.04556" lon="1.95026">
        <ele>47</ele>
        <time>2023-01-09T03:36:00Z</time>
      </trkpt>
      <trkpt lat="49.04493" lon="1.94801">
        <ele>47</ele>
        <time>2023-01-09T03:39:34Z</time>
      </trkpt>
      <trkpt lat="49.04461" lon="1.94643">
        <ele>47</ele>
        <time>2023-01-09T03:41:59Z</time>
      </trkpt>
      <trkpt lat="49.04433" lon="1.94569">
        <ele>46</ele>
        <time>2023-01-09T03:43:13Z</time>
      </trkpt>
      <trkpt lat="49.04404" lon="1.94471">
        <ele>46</ele>
        <time>2023-01-09T03:44:48Z</time>
      </trkpt>
      <trkpt lat="49.04374" lon="1.94344">
        <ele>46</ele>
        <time>2023-01-09T03:46:46Z</time>
      </trkpt>
      <trkpt lat="49.04347" lon="1.94289">
        <ele>46</ele>
        <time>2023-01-09T03:47:46Z</time>
      </trkpt>
      <trkpt lat="49.04338" lon="1.94282">
        <ele>46</ele>
        <time>2023-01-09T03:47:59Z</time>
      </trkpt>
      <trkpt lat="49.0431" lon="1.94282">
        <ele>46</ele>
        <time>2023-01-09T03:48:37Z</time>
      </trkpt>
      <trkpt lat="49.04294" lon="1.94275">
        <ele>47</ele>
        <time>2023-01-09T03:48:59Z</time>
      </trkpt>
      <trkpt lat="49.04264" lon="1.94282">
        <ele>47</ele>
        <time>2023-01-09T03:49:39Z</time>
      </trkpt>
      <trkpt lat="49.0424" lon="1.94281">
        <ele>47</ele>
        <time>2023-01-09T03:50:11Z</time>
      </trkpt>
      <trkpt lat="49.04188" lon="1.94306">
        <ele>45</ele>
        <time>2023-01-09T03:51:24Z</time>
      </trkpt>
      <trkpt lat="49.04165" lon="1.94298">
        <ele>45</ele>
        <time>2023-01-09T03:51:56Z</time>
      </trkpt>
      <trkpt lat="49.04122" lon="1.94257">
        <ele>46</ele>
        <time>2023-01-09T03:53:03Z</time>
      </trkpt>
      <trkpt lat="49.04105" lon="1.94235">
        <ele>46</ele>
        <time>2023-01-09T03:53:33Z</time>
      </trkpt>
      <trkpt lat="49.0407" lon="1.9416">
        <ele>49</ele>
        <time>2023-01-09T03:54:53Z</time>
      </trkpt>
      <trkpt lat="49.04069" lon="1.94141">
        <ele>50</ele>
        <time>2023-01-09T03:55:10Z</time>
      </trkpt>
      <trkpt lat="49.04084" lon="1.94124">
        <ele>52</ele>
        <time>2023-01-09T03:55:35Z</time>
      </trkpt>
      <trkpt lat="49.04089" lon="1.94111">
        <ele>52</ele>
        <time>2023-01-09T03:55:48Z</time>
      </trkpt>
      <trkpt lat="49.04085" lon="1.94117">
        <ele>52</ele>
        <time>2023-01-09T03:55:56Z</time>
      </trkpt>
      <trkpt lat="49.04065" lon="1.94079">
        <ele>54</ele>
        <time>2023-01-09T03:56:38Z</time>
      </trkpt>
      <trkpt lat="49.04072" lon="1.94013">
        <ele>57</ele>
        <time>2023-01-09T03:57:37Z</time>
      </trkpt>
      <trkpt lat="49.04073" lon="1.93961">
        <ele>61</ele>
        <time>2023-01-09T03:58:22Z</time>
      </trkpt>
      <trkpt lat="49.04096" lon="1.93856">
        <ele>69</ele>
        <time>2023-01-09T03:59:59Z</time>
      </trkpt>
      <trkpt lat="49.04093" lon="1.93822">
        <ele>71</ele>
        <time>2023-01-09T04:00:29Z</time>
      </trkpt>
      <trkpt lat="49.04121" lon="1.93689">
        <ele>80</ele>
        <time>2023-01-09T04:02:31Z</time>
      </trkpt>
      <trkpt lat="49.04138" lon="1.9365">
        <ele>82</ele>
        <time>2023-01-09T04:03:12Z</time>
      </trkpt>
      <trkpt lat="49.04139" lon="1.9364">
        <ele>83</ele>
        <time>2023-01-09T04:03:21Z</time>
      </trkpt>
      <trkpt lat="49.04132" lon="1.93627">
        <ele>83</ele>
        <time>2023-01-09T04:03:36Z</time>
      </trkpt>
      <trkpt lat="49.0412" lon="1.93619">
        <ele>83</ele>
        <time>2023-01-09T04:03:53Z</time>
      </trkpt>
      <trkpt lat="49.04105" lon="1.93599">
        <ele>83</ele>
        <time>2023-01-09T04:04:20Z</time>
      </trkpt>
      <trkpt lat="49.04043" lon="1.93509">
        <ele>85</ele>
        <time>2023-01-09T04:06:14Z</time>
      </trkpt>
      <trkpt lat="49.03953" lon="1.93348">
        <ele>91</ele>
        <time>2023-01-09T04:09:19Z</time>
      </trkpt>
      <trkpt lat="49.03933" lon="1.93302">
        <ele>92</ele>
        <time>2023-01-09T04:10:08Z</time>
      </trkpt>
      <trkpt lat="49.03884" lon="1.93126">
        <ele>95</ele>
        <time>2023-01-09T04:12:55Z</time>
      </trkpt>
      <trkpt lat="49.03865" lon="1.93083">
        <ele>96</ele>
        <time>2023-01-09T04:13:40Z</time>
      </trkpt>
      <trkpt lat="49.03832" lon="1.92897">
        <ele>100</ele>
        <time>2023-01-09T04:16:29Z</time>
      </trkpt>
      <trkpt lat="49.03811" lon="1.92748">
        <ele>101</ele>
        <time>2023-01-09T04:18:42Z</time>
      </trkpt>
      <trkpt lat="49.0381" lon="1.92714">
        <ele>101</ele>
        <time>2023-01-09T04:19:12Z</time>
      </trkpt>
      <trkpt lat="49.03817" lon="1.92676">
        <ele>102</ele>
        <time>2023-01-09T04:19:46Z</time>
      </trkpt>
      <trkpt lat="49.03833" lon="1.92496">
        <ele>105</ele>
        <time>2023-01-09T04:22:25Z</time>
      </trkpt>
      <trkpt lat="49.03833" lon="1.92438">
        <ele>107</ele>
        <time>2023-01-09T04:23:16Z</time>
      </trkpt>
      <trkpt lat="49.03854" lon="1.92328">
        <ele>110</ele>
        <time>2023-01-09T04:24:56Z</time>
      </trkpt>
      <trkpt lat="49.03869" lon="1.92128">
        <ele>113</ele>
        <time>2023-01-09T04:27:52Z</time>
      </trkpt>
      <trkpt lat="49.03888" lon="1.91986">
        <ele>116</ele>
        <time>2023-01-09T04:29:59Z</time>
      </trkpt>
      <trkpt lat="49.03891" lon="1.91902">
        <ele>117</ele>
        <time>2023-01-09T04:31:13Z</time>
      </trkpt>
      <trkpt lat="49.03739" lon="1.91799">
        <ele>114</ele>
        <time>2023-01-09T04:34:55Z</time>
      </trkpt>
      <trkpt lat="49.03621" lon="1.91693">
        <ele>111</ele>
        <time>2023-01-09T04:37:58Z</time>
      </trkpt>
      <trkpt lat="49.03573" lon="1.9164">
        <ele>110</ele>
        <time>2023-01-09T04:39:17Z</time>
      </trkpt>
      <trkpt lat="49.03517" lon="1.91595">
        <ele>108</ele>
        <time>2023-01-09T04:40:41Z</time>
      </trkpt>
      <trkpt lat="49.03513" lon="1.91583">
        <ele>108</ele>
        <time>2023-01-09T04:40:53Z</time>
      </trkpt>
      <trkpt lat="49.0352" lon="1.91567">
        <ele>109</ele>
        <time>2023-01-09T04:41:10Z</time>
      </trkpt>
      <trkpt lat="49.03597" lon="1.91511">
        <ele>110</ele>
        <time>2023-01-09T04:43:04Z</time>
      </trkpt>
      <trkpt lat="49.03639" lon="1.91488">
        <ele>111</ele>
        <time>2023-01-09T04:44:03Z</time>
      </trkpt>
      <trkpt lat="49.03682" lon="1.91442">
        <ele>112</ele>
        <time>2023-01-09T04:45:13Z</time>
      </trkpt>
      <trkpt lat="49.03713" lon="1.91298">
        <ele>114</ele>
        <time>2023-01-09T04:47:26Z</time>
      </trkpt>
      <trkpt lat="49.03728" lon="1.91241">
        <ele>114</ele>
        <time>2023-01-09T04:48:19Z</time>
      </trkpt>
      <trkpt lat="49.03752" lon="1.91174">
        <ele>113</ele>
        <time>2023-01-09T04:49:26Z</time>
      </trkpt>
      <trkpt lat="49.03775" lon="1.91069">
        <ele>115</ele>
        <time>2023-01-09T04:51:03Z</time>
      </trkpt>
      <trkpt lat="49.0377" lon="1.91052">
        <ele>115</ele>
        <time>2023-01-09T04:51:19Z</time>
      </trkpt>
      <trkpt lat="49.03744" lon="1.91034">
        <ele>114</ele>
        <time>2023-01-09T04:51:58Z</time>
      </trkpt>
      <trkpt lat="49.03739" lon="1.91018">
        <ele>114</ele>
        <time>2023-01-09T04:52:13Z</time>
      </trkpt>
      <trkpt lat="49.03744" lon="1.90815">
        <ele>116</ele>
        <time>2023-01-09T04:55:11Z</time>
      </trkpt>
      <trkpt lat="49.03738" lon="1.90762">
        <ele>115</ele>
        <time>2023-01-09T04:55:58Z</time>
      </trkpt>
      <trkpt lat="49.03737" lon="1.90689">
        <ele>114</ele>
        <time>2023-01-09T04:57:02Z</time>
      </trkpt>
      <trkpt lat="49.03727" lon="1.90616">
        <ele>113</ele>
        <time>2023-01-09T04:58:07Z</time>
      </trkpt>
      <trkpt lat="49.03721" lon="1.90512">
        <ele>110</ele>
        <time>2023-01-09T04:59:38Z</time>
      </trkpt>
      <trkpt lat="49.03724" lon="1.90488">
        <ele>110</ele>
        <time>2023-01-09T05:00:00Z</time>
      </trkpt>
      <trkpt lat="49.03723" lon="1.90302">
        <ele>107</ele>
        <time>2023-01-09T05:02:42Z</time>
      </trkpt>
      <trkpt lat="49.03732" lon="1.90241">
        <ele>106</ele>
        <time>2023-01-09T05:03:37Z</time>
      </trkpt>
      <trkpt lat="49.0375" lon="1.90213">
        <ele>107</ele>
        <time>2023-01-09T05:04:11Z</time>
      </trkpt>
      <trkpt lat="49.03805" lon="1.90151">
        <ele>107</ele>
        <time>2023-01-09T05:05:43Z</time>
      </trkpt>
      <trkpt lat="49.03822" lon="1.90134">
        <ele>108</ele>
        <time>2023-01-09T05:06:10Z</time>
      </trkpt>
      <trkpt lat="49.03846" lon="1.90118">
        <ele>109</ele>
        <time>2023-01-09T05:06:45Z</time>
      </trkpt>
      <trkpt lat="49.03885" lon="1.90079">
        <ele>111</ele>
        <time>2023-01-09T05:07:47Z</time>
      </trkpt>
      <trkpt lat="49.0391" lon="1.90047">
        <ele>113</ele>
        <time>2023-01-09T05:08:30Z</time>
      </trkpt>
      <trkpt lat="49.04008" lon="1.89945">
        <ele>116</ele>
        <time>2023-01-09T05:11:09Z</time>
      </trkpt>
      <trkpt lat="49.04015" lon="1.89931">
        <ele>117</ele>
        <time>2023-01-09T05:11:24Z</time>
      </trkpt>
      <trkpt lat="49.03997" lon="1.89898">
        <ele>116</ele>
        <time>2023-01-09T05:12:02Z</time>
      </trkpt>
      <trkpt lat="49.03934" lon="1.89813">
        <ele>116</ele>
        <time>2023-01-09T05:13:54Z</time>
      </trkpt>
      <trkpt lat="49.039" lon="1.89759">
        <ele>113</ele>
        <time>2023-01-09T05:14:59Z</time>
      </trkpt>
      <trkpt lat="49.03815" lon="1.89601">
        <ele>108</ele>
        <time>2023-01-09T05:17:58Z</time>
      </trkpt>
      <trkpt lat="49.03796" lon="1.89555">
        <ele>107</ele>
        <time>2023-01-09T05:18:46Z</time>
      </trkpt>
      <trkpt lat="49.03725" lon="1.89415">
        <ele>106</ele>
        <time>2023-01-09T05:21:21Z</time>
      </trkpt>
      <trkpt lat="49.03692" lon="1.89294">
        <ele>108</ele>
        <time>2023-01-09T05:23:15Z</time>
      </trkpt>
      <trkpt lat="49.03647" lon="1.89151">
        <ele>109</ele>
        <time>2023-01-09T05:25:34Z</time>
      </trkpt>
      <trkpt lat="49.03617" lon="1.89034">
        <ele>109</ele>
        <time>2023-01-09T05:27:24Z</time>
      </trkpt>
      <trkpt lat="49.03585" lon="1.88852">
        <ele>106</ele>
        <time>2023-01-09T05:30:09Z</time>
      </trkpt>
      <trkpt lat="49.03555" lon="1.88731">
        <ele>105</ele>
        <time>2023-01-09T05:32:02Z</time>
      </trkpt>
      <trkpt lat="49.0353" lon="1.88668">
        <ele>104</ele>
        <time>2023-01-09T05:33:06Z</time>
      </trkpt>
      <trkpt lat="49.03464" lon="1.88534">
        <ele>102</ele>
        <time>2023-01-09T05:35:33Z</time>
      </trkpt>
      <trkpt lat="49.03427" lon="1.88448">
        <ele>101</ele>
        <time>2023-01-09T05:37:03Z</time>
      </trkpt>
      <trkpt lat="49.03394" lon="1.88388">
        <ele>100</ele>
        <time>2023-01-09T05:38:12Z</time>
      </trkpt>
      <trkpt lat="49.03371" lon="1.88332">
        <ele>99</ele>
        <time>2023-01-09T05:39:09Z</time>
      </trkpt>
      <trkpt lat="49.03331" lon="1.88102">
        <ele>97</ele>
        <time>2023-01-09T05:42:38Z</time>
      </trkpt>
      <trkpt lat="49.03332" lon="1.8807">
        <ele>97</ele>
        <time>2023-01-09T05:43:06Z</time>
      </trkpt>
      <trkpt lat="49.03325" lon="1.88049">
        <ele>97</ele>
        <time>2023-01-09T05:43:26Z</time>
      </trkpt>
      <trkpt lat="49.03329" lon="1.88037">
        <ele>97</ele>
        <time>2023-01-09T05:43:38Z</time>
      </trkpt>
      <trkpt lat="49.03325" lon="1.87995">
        <ele>96</ele>
        <time>2023-01-09T05:44:15Z</time>
      </trkpt>
      <trkpt lat="49.03307" lon="1.87899">
        <ele>96</ele>
        <time>2023-01-09T05:45:43Z</time>
      </trkpt>
      <trkpt lat="49.03281" lon="1.87841">
        <ele>97</ele>
        <time>2023-01-09T05:46:44Z</time>
      </trkpt>
      <trkpt lat="49.03272" lon="1.87802">
        <ele>96</ele>
        <time>2023-01-09T05:47:20Z</time>
      </trkpt>
      <trkpt lat="49.03248" lon="1.87762">
        <ele>94</ele>
        <time>2023-01-09T05:48:08Z</time>
      </trkpt>
      <trkpt lat="49.03239" lon="1.87729">
        <ele>91</ele>
        <time>2023-01-09T05:48:39Z</time>
      </trkpt>
      <trkpt lat="49.03216" lon="1.87681">
        <ele>88</ele>
        <time>2023-01-09T05:49:31Z</time>
      </trkpt>
      <trkpt lat="49.03208" lon="1.87652">
        <ele>86</ele>
        <time>2023-01-09T05:49:58Z</time>
      </trkpt>
      <trkpt lat="49.0321" lon="1.87591">
        <ele>82</ele>
        <time>2023-01-09T05:50:52Z</time>
      </trkpt>
      <trkpt lat="49.0323" lon="1.87486">
        <ele>74</ele>
        <time>2023-01-09T05:52:28Z</time>
      </trkpt>
      <trkpt lat="49.03232" lon="1.87442">
        <ele>70</ele>
        <time>2023-01-09T05:53:06Z</time>
      </trkpt>
      <trkpt lat="49.03206" lon="1.87325">
        <ele>64</ele>
        <time>2023-01-09T05:54:54Z</time>
      </trkpt>
      <trkpt lat="49.032" lon="1.87273">
        <ele>61</ele>
        <time>2023-01-09T05:55:40Z</time>
      </trkpt>
      <trkpt lat="49.03171" lon="1.87184">
        <ele>52</ele>
        <time>2023-01-09T05:57:07Z</time>
      </trkpt>
      <trkpt lat="49.03159" lon="1.87158">
        <ele>48</ele>
        <time>2023-01-09T05:57:35Z</time>
      </trkpt>
      <trkpt lat="49.03146" lon="1.87085">
        <ele>43</ele>
        <time>2023-01-09T05:58:41Z</time>
      </trkpt>
      <trkpt lat="49.03167" lon="1.86998">
        <ele>43</ele>
        <time>2023-01-09T06:00:02Z</time>
      </trkpt>
      <trkpt lat="49.03182" lon="1.86966">
        <ele>44</ele>
        <time>2023-01-09T06:00:37Z</time>
      </trkpt>
      <trkpt lat="49.03188" lon="1.86941">
        <ele>44</ele>
        <time>2023-01-09T06:01:00Z</time>
      </trkpt>
      <trkpt lat="49.03187" lon="1.86884">
        <ele>41</ele>
        <time>2023-01-09T06:01:50Z</time>
      </trkpt>
      <trkpt lat="49.03192" lon="1.86836">
        <ele>40</ele>
        <time>2023-01-09T06:02:33Z</time>
      </trkpt>
      <trkpt lat="49.0321" lon="1.86781">
        <ele>41</ele>
        <time>2023-01-09T06:03:26Z</time>
      </trkpt>
      <trkpt lat="49.03203" lon="1.86763">
        <ele>40</ele>
        <time>2023-01-09T06:03:45Z</time>
      </trkpt>
      <trkpt lat="49.03213" lon="1.86747">
        <ele>40</ele>
        <time>2023-01-09T06:04:04Z</time>
      </trkpt>
      <trkpt lat="49.03236" lon="1.86726">
        <ele>40</ele>
        <time>2023-01-09T06:04:40Z</time>
      </trkpt>
      <trkpt lat="49.03259" lon="1.86693">
        <ele>41</ele>
        <time>2023-01-09T06:05:22Z</time>
      </trkpt>
      <trkpt lat="49.03303" lon="1.86656">
        <ele>41</ele>
        <time>2023-01-09T06:06:29Z</time>
      </trkpt>
      <trkpt lat="49.03328" lon="1.86641">
        <ele>41</ele>
        <time>2023-01-09T06:07:05Z</time>
      </trkpt>
      <trkpt lat="49.03357" lon="1.86612">
        <ele>41</ele>
        <time>2023-01-09T06:07:51Z</time>
      </trkpt>
      <trkpt lat="49.03384" lon="1.8657">
        <ele>41</ele>
        <time>2023-01-09T06:08:43Z</time>
      </trkpt>
      <trkpt lat="49.03403" lon="1.86525">
        <ele>40</ele>
        <time>2023-01-09T06:09:29Z</time>
      </trkpt>
      <trkpt lat="49.03413" lon="1.86525">
        <ele>38</ele>
        <time>2023-01-09T06:09:43Z</time>
      </trkpt>
      <trkpt lat="49.03442" lon="1.86546">
        <ele>38</ele>
        <time>2023-01-09T06:10:26Z</time>
      </trkpt>
      <trkpt lat="49.0346" lon="1.86543">
        <ele>39</ele>
        <time>2023-01-09T06:10:50Z</time>
      </trkpt>
      <trkpt lat="49.03471" lon="1.86533">
        <ele>39</ele>
        <time>2023-01-09T06:11:07Z</time>
      </trkpt>
      <trkpt lat="49.03486" lon="1.86462">
        <ele>39</ele>
        <time>2023-01-09T06:12:12Z</time>
      </trkpt>
      <trkpt lat="49.03479" lon="1.86435">
        <ele>39</ele>
        <time>2023-01-09T06:12:37Z</time>
      </trkpt>
    </trkseg>
  </trk>
</gpx>